Data for 09/30/2012

Time Sea-Level Adjusted Pressure Absolute Pressure Temperature Relative Humidity Dew Point Precipitation   
(mb) (inHg) (mb) (inHg) (C) (F) (%) (C) (F) (mm) (in)
00:01 1025 30.27 854 25.22 7.6 45.7 76 3.6 38.5 0 0
00:02 1025 30.27 854 25.22 7.5 45.4 76 3.6 38.4 0 0
00:03 1025 30.27 854 25.22 7.4 45.3 77 3.6 38.5 0 0
00:04 1025 30.27 854 25.22 7.5 45.4 76 3.6 38.5 0 0
00:05 1025 30.27 854 25.22 7.5 45.5 76 3.6 38.5 0 0
00:06 1025 30.27 854 25.22 7.6 45.7 76 3.7 38.7 0 0
00:07 1025 30.27 854 25.22 7.5 45.6 76 3.6 38.5 0 0
00:08 1025 30.27 854 25.22 7.5 45.5 76 3.6 38.5 0 0
00:09 1025 30.27 854 25.22 7.5 45.5 76 3.6 38.5 0 0
00:10 1025 30.27 854 25.22 7.5 45.6 76 3.6 38.5 0 0
00:11 1025 30.27 854 25.22 7.6 45.6 76 3.6 38.5 0 0
00:12 1025 30.27 854 25.22 7.6 45.8 76 3.6 38.5 0 0
00:13 1025 30.27 854 25.22 7.6 45.7 75 3.5 38.3 0 0
00:14 1025 30.27 854 25.22 7.6 45.6 76 3.5 38.4 0 0
00:15 1025 30.27 854 25.22 7.6 45.7 75 3.5 38.2 0 0
00:16 1025 30.27 854 25.22 7.7 45.9 75 3.5 38.3 0 0
00:17 1025 30.27 854 25.22 8 46.3 74 3.5 38.4 0 0
00:18 1025 30.27 854 25.22 8.1 46.5 73 3.6 38.4 0 0
00:19 1025 30.27 854 25.22 8.1 46.5 73 3.6 38.5 0 0
00:20 1025 30.27 854 25.22 8.1 46.6 73 3.6 38.5 0 0
00:21 1025 30.27 854 25.22 8.1 46.5 74 3.8 38.8 0 0
00:22 1025 30.27 854 25.22 8.1 46.5 74 3.8 38.8 0 0
00:23 1025 30.27 854 25.22 8.2 46.7 74 3.8 38.8 0 0
00:24 1025 30.27 854 25.22 8.3 46.9 73 3.8 38.8 0 0
00:25 1025 30.27 854 25.22 8.4 47 73 3.8 38.8 0 0
00:26 1025 30.27 854 25.22 8.4 47.1 73 3.8 38.8 0 0
00:27 1025 30.27 854 25.22 8.4 47.1 73 3.8 38.9 0 0
00:28 1025 30.27 854 25.22 8.4 47.1 72 3.8 38.8 0 0
00:29 1025 30.27 854 25.22 8.4 47.1 72 3.7 38.7 0 0
00:30 1025 30.27 854 25.22 8.4 47 72 3.7 38.7 0 0
00:31 1025 30.27 854 25.22 8.3 46.9 73 3.7 38.6 0 0
00:32 1025 30.27 854 25.22 8.2 46.8 73 3.7 38.6 0 0
00:33 1025 30.27 854 25.22 8.2 46.7 73 3.7 38.6 0 0
00:34 1025 30.27 854 25.22 8.1 46.5 74 3.7 38.6 0 0
00:35 1025 30.27 854 25.22 8.1 46.5 74 3.7 38.6 0 0
00:36 1025 30.27 854 25.22 8 46.4 74 3.6 38.5 0 0
00:37 1025 30.27 854 25.22 7.9 46.3 74 3.6 38.5 0 0
00:38 1025 30.27 854 25.22 7.8 46.1 74 3.6 38.4 0 0
00:39 1025 30.27 854 25.22 7.7 45.8 75 3.5 38.4 0 0
00:40 1025 30.27 854 25.22 7.5 45.4 76 3.4 38.2 0 0
00:41 1025 30.27 854 25.22 7.3 45.1 76 3.4 38 0 0
00:42 1025 30.27 854 25.22 7.1 44.8 78 3.5 38.2 0 0
00:43 1025 30.27 854 25.22 7.1 44.8 77 3.4 38.2 0 0
00:44 1025 30.27 854 25.22 7.1 44.7 77 3.4 38.1 0 0
00:45 1025 30.27 854 25.22 7 44.6 78 3.4 38 0 0
00:46 1025 30.27 854 25.22 6.9 44.5 78 3.4 38 0 0
00:47 1025 30.27 854 25.22 6.9 44.5 78 3.4 38.2 0 0
00:48 1025 30.27 854 25.22 6.9 44.5 79 3.5 38.2 0 0
00:49 1025 30.27 854 25.22 7 44.6 78 3.4 38.1 0 0
00:50 1025 30.27 854 25.22 7 44.6 78 3.5 38.3 0 0
00:51 1025 30.27 854 25.22 7 44.6 78 3.5 38.3 0 0
00:52 1025 30.27 854 25.22 7.1 44.7 78 3.5 38.3 0 0
00:53 1025 30.27 854 25.22 7.2 44.9 77 3.5 38.2 0 0
00:54 1025 30.27 854 25.22 7.1 44.7 77 3.4 38.1 0 0
00:55 1025 30.27 854 25.22 7 44.6 78 3.3 38 0 0
00:56 1025 30.27 854 25.22 6.9 44.4 78 3.3 37.9 0 0
00:57 1025 30.27 854 25.22 6.8 44.3 78 3.2 37.8 0 0
00:58 1025 30.27 854 25.22 6.8 44.2 79 3.3 37.9 0 0
00:59 1025 30.27 854 25.22 6.7 44.1 79 3.3 38 0 0
01:00 1025 30.27 854 25.22 6.8 44.2 79 3.4 38.2 0 0
01:01 1025 30.27 854 25.22 6.8 44.3 79 3.5 38.3 0 0
01:02 1025 30.27 854 25.22 6.9 44.5 79 3.5 38.4 0 0
01:03 1025 30.27 854 25.22 7.1 44.7 79 3.6 38.5 0 0
01:04 1025 30.27 854 25.22 7.1 44.8 79 3.7 38.6 0 0
01:05 1025 30.27 854 25.22 7.1 44.8 79 3.7 38.7 0 0
01:06 1025 30.27 854 25.22 7.3 45.1 79 3.8 38.8 0 0
01:07 1025 30.27 854 25.22 7.4 45.4 77 3.7 38.7 0 0
01:08 1025 30.27 854 25.22 7.5 45.4 76 3.5 38.2 0 0
01:09 1025 30.27 854 25.22 7.3 45.1 76 3.3 38 0 0
01:10 1025 30.27 854 25.22 7.1 44.7 78 3.4 38.2 0 0
01:11 1025 30.27 854 25.22 6.9 44.5 77 3.2 37.8 0 0
01:12 1025 30.27 854 25.22 6.7 44.1 78 3.1 37.6 0 0
01:13 1025 30.27 854 25.22 6.6 43.8 78 3.1 37.6 0 0
01:14 1025 30.27 854 25.22 6.5 43.7 80 3.3 37.9 0 0
01:15 1025 30.27 854 25.22 6.5 43.8 80 3.3 37.9 0 0
01:16 1025 30.27 854 25.22 6.7 44 79 3.2 37.8 0 0
01:17 1025 30.27 854 25.22 6.7 44.1 79 3.3 37.9 0 0
01:18 1025 30.27 854 25.22 6.8 44.2 79 3.4 38 0 0
01:19 1025 30.27 854 25.22 6.8 44.3 79 3.5 38.2 0 0
01:20 1025 30.27 854 25.22 7 44.6 77 3.3 38 0 0
01:21 1025 30.27 854 25.22 7.1 44.7 77 3.3 37.9 0 0
01:22 1025 30.27 854 25.22 7.2 44.9 75 3.1 37.6 0 0
01:23 1025 30.27 854 25.22 7.2 44.9 75 3 37.5 0 0
01:24 1025 30.27 854 25.22 7.2 45 74 3 37.3 0 0
01:25 1025 30.27 854 25.22 7.2 45 74 3 37.3 0 0
01:26 1025 30.27 854 25.22 7.2 44.9 74 3 37.3 0 0
01:27 1025 30.27 854 25.22 7.2 45 74 3 37.3 0 0
01:28 1025 30.27 854 25.22 7.2 45 74 2.9 37.3 0 0
01:29 1025 30.27 854 25.22 7.3 45.1 74 3 37.4 0 0
01:30 1025 30.27 854 25.22 7.3 45.1 74 3 37.4 0 0
01:31 1025 30.27 854 25.22 7.3 45.2 74 3 37.5 0 0
01:32 1025 30.27 854 25.22 7.3 45.2 74 3 37.4 0 0
01:33 1025 30.27 854 25.22 7.4 45.4 74 3.1 37.6 0 0
01:34 1025 30.27 854 25.22 7.5 45.5 74 3.1 37.6 0 0
01:35 1025 30.27 854 25.22 7.6 45.7 74 3.2 37.7 0 0
01:36 1025 30.27 854 25.22 7.7 45.8 73 3.2 37.8 0 0
01:37 1025 30.27 854 25.22 7.8 46 73 3.3 37.9 0 0
01:38 1025 30.27 854 25.22 7.9 46.2 73 3.3 37.9 0 0
01:39 1025 30.27 854 25.22 8 46.4 72 3.3 37.9 0 0
01:40 1025 30.27 854 25.22 8.1 46.6 72 3.4 38 0 0
01:41 1025 30.27 854 25.22 8.2 46.8 72 3.5 38.2 0 0
01:42 1025 30.27 854 25.22 8.2 46.8 72 3.6 38.4 0 0
01:43 1025 30.27 854 25.22 8.2 46.8 72 3.6 38.5 0 0
01:44 1025 30.27 854 25.22 8.3 47 72 3.6 38.5 0 0
01:45 1025 30.27 854 25.22 8.3 47 72 3.6 38.5 0 0
01:46 1025 30.27 854 25.22 8.4 47 72 3.6 38.5 0 0
01:47 1025 30.27 854 25.22 8.4 47.1 72 3.5 38.4 0 0
01:48 1025 30.27 854 25.22 8.4 47.1 70 3.3 38 0 0
01:49 1025 30.27 854 25.22 8.6 47.4 70 3.4 38.2 0 0
01:50 1025 30.27 854 25.22 8.7 47.7 70 3.5 38.2 0 0
01:51 1025 30.27 854 25.22 8.8 47.9 69 3.5 38.4 0 0
01:52 1025 30.27 854 25.22 8.8 47.9 69 3.6 38.4 0 0
01:53 1025 30.27 854 25.22 8.8 47.8 69 3.5 38.4 0 0
01:54 1025 30.27 854 25.22 8.9 47.9 69 3.6 38.4 0 0
01:55 1025 30.27 854 25.22 8.9 47.9 69 3.5 38.4 0 0
01:56 1025 30.27 854 25.22 8.9 48.1 69 3.6 38.5 0 0
01:57 1025 30.27 854 25.22 9 48.1 69 3.6 38.5 0 0
01:58 1025 30.27 854 25.22 8.9 48.1 69 3.6 38.4 0 0
01:59 1025 30.27 854 25.22 8.9 48 69 3.6 38.5 0 0
02:00 1025 30.27 854 25.22 8.9 48 69 3.6 38.5 0 0
02:01 1025 30.27 854 25.22 8.9 47.9 69 3.6 38.4 0 0
02:02 1025 30.27 854 25.22 8.8 47.8 69 3.5 38.3 0 0
02:03 1025 30.27 854 25.22 8.8 47.8 69 3.5 38.4 0 0
02:04 1025 30.27 854 25.22 8.7 47.7 70 3.5 38.4 0 0
02:05 1025 30.27 854 25.22 8.7 47.7 69 3.5 38.3 0 0
02:06 1025 30.27 854 25.22 8.8 47.8 69 3.5 38.3 0 0
02:07 1025 30.27 854 25.22 8.8 47.9 69 3.5 38.3 0 0
02:08 1025 30.27 854 25.22 8.9 48 69 3.5 38.3 0 0
02:09 1025 30.27 855 25.25 8.9 48.1 68 3.5 38.3 0 0
02:10 1025 30.27 854 25.22 8.9 48.1 69 3.5 38.3 0 0
02:11 1025 30.27 854 25.22 8.9 48 69 3.5 38.3 0 0
02:12 1025 30.27 854 25.22 8.8 47.8 69 3.6 38.4 0 0
02:13 1025 30.27 854 25.22 8.8 47.8 70 3.5 38.4 0 0
02:14 1025 30.27 854 25.22 8.8 47.9 69 3.5 38.3 0 0
02:15 1025 30.27 854 25.22 8.9 48 69 3.5 38.3 0 0
02:16 1025 30.27 854 25.22 8.9 48.1 68 3.5 38.2 0 0
02:17 1025 30.27 854 25.22 9 48.3 68 3.5 38.3 0 0
02:18 1025 30.27 854 25.22 9.1 48.3 68 3.5 38.3 0 0
02:19 1025 30.27 854 25.22 9.1 48.5 67 3.4 38.1 0 0
02:20 1025 30.27 854 25.22 9.2 48.6 67 3.3 38 0 0
02:21 1025 30.27 854 25.22 9.3 48.8 66 3.4 38.1 0 0
02:22 1025 30.27 854 25.22 9.4 48.8 67 3.5 38.3 0 0
02:23 1025 30.27 854 25.22 9.4 48.9 67 3.5 38.4 0 0
02:24 1025 30.27 854 25.22 9.4 48.8 67 3.5 38.4 0 0
02:25 1025 30.27 854 25.22 9.4 48.9 67 3.5 38.4 0 0
02:26 1025 30.27 854 25.22 9.4 49 67 3.6 38.4 0 0
02:27 1025 30.27 854 25.22 9.5 49 67 3.6 38.5 0 0
02:28 1025 30.27 854 25.22 9.5 49.2 67 3.6 38.6 0 0
02:29 1025 30.27 854 25.22 9.6 49.2 66 3.5 38.4 0 0
02:30 1025 30.27 854 25.22 9.6 49.3 66 3.7 38.6 0 0
02:31 1025 30.27 854 25.22 9.6 49.4 69 4.2 39.6 0 0
02:32 1025 30.27 854 25.22 9.4 49 70 4.2 39.6 0 0
02:33 1025 30.27 854 25.22 9.3 48.7 70 4.2 39.5 0 0
02:34 1025 30.27 854 25.22 9.2 48.5 71 4.2 39.6 0 0
02:35 1025 30.27 854 25.22 9.1 48.3 72 4.3 39.7 0 0
02:36 1025 30.27 854 25.22 9 48.2 72 4.2 39.6 0 0
02:37 1025 30.27 854 25.22 8.9 48.1 71 4 39.3 0 0
02:38 1025 30.27 854 25.22 8.9 48 71 3.9 39.1 0 0
02:39 1025 30.27 854 25.22 8.9 48.1 70 3.8 38.9 0 0
02:40 1025 30.27 854 25.22 8.9 48.1 70 3.7 38.7 0 0
02:41 1025 30.27 854 25.22 9.1 48.3 69 3.8 38.8 0 0
02:42 1025 30.27 854 25.22 9.2 48.5 68 3.7 38.6 0 0
02:43 1025 30.27 854 25.22 9.3 48.8 66 3.4 38.1 0 0
02:44 1025 30.27 854 25.22 9.6 49.3 65 3.3 38 0 0
02:45 1025 30.27 854 25.22 9.8 49.7 64 3.3 38 0 0
02:46 1025 30.27 854 25.22 10 50 63 3.3 38 0 0
02:47 1025 30.27 854 25.22 10.1 50.2 63 3.5 38.3 0 0
02:48 1025 30.27 854 25.22 10.2 50.3 63 3.6 38.4 0 0
02:49 1025 30.27 854 25.22 10.2 50.3 64 3.6 38.6 0 0
02:50 1025 30.27 854 25.22 10.2 50.3 64 3.6 38.5 0 0
02:51 1025 30.27 854 25.22 10.2 50.4 64 3.7 38.6 0 0
02:52 1025 30.27 854 25.22 10.2 50.4 64 3.7 38.6 0 0
02:53 1025 30.27 854 25.22 10.2 50.3 65 3.9 39 0 0
02:54 1025 30.27 854 25.22 10.2 50.3 65 3.8 38.9 0 0
02:55 1025 30.27 854 25.22 10.2 50.3 64 3.8 38.8 0 0
02:56 1025 30.27 854 25.22 10.2 50.3 64 3.7 38.7 0 0
02:57 1025 30.27 854 25.22 10.2 50.4 63 3.6 38.4 0 0
02:58 1025 30.27 854 25.22 10.3 50.6 63 3.6 38.5 0 0
02:59 1025 30.27 854 25.22 10.4 50.7 62 3.5 38.3 0 0
03:00 1025 30.27 854 25.22 10.5 50.9 62 3.5 38.3 0 0
03:01 1025 30.27 854 25.22 10.6 51.1 61 3.6 38.4 0 0
03:02 1025 30.27 854 25.22 10.7 51.2 61 3.5 38.3 0 0
03:03 1025 30.27 854 25.22 10.7 51.3 61 3.6 38.6 0 0
03:04 1025 30.27 854 25.22 10.7 51.2 62 3.7 38.6 0 0
03:05 1025 30.27 854 25.22 10.6 51.1 61 3.6 38.4 0 0
03:06 1025 30.27 854 25.22 10.6 51.1 62 3.8 38.8 0 0
03:07 1025 30.27 854 25.22 10.6 51 63 3.8 38.9 0 0
03:08 1025 30.27 854 25.22 10.5 50.9 63 3.8 38.9 0 0
03:09 1025 30.27 854 25.22 10.5 50.9 64 3.9 39.1 0 0
03:10 1025 30.27 854 25.22 10.4 50.6 64 3.8 38.8 0 0
03:11 1025 30.27 854 25.22 10.4 50.6 63 3.7 38.7 0 0
03:12 1025 30.27 854 25.22 10.4 50.7 63 3.8 38.8 0 0
03:13 1025 30.27 854 25.22 10.4 50.8 64 4 39.1 0 0
03:14 1025 30.27 854 25.22 10.3 50.6 64 3.9 39 0 0
03:15 1025 30.27 854 25.22 10.3 50.5 65 4.1 39.4 0 0
03:16 1025 30.27 854 25.22 10.2 50.3 65 3.9 39.1 0 0
03:17 1025 30.27 854 25.22 10.2 50.4 65 4 39.1 0 0
03:18 1025 30.27 854 25.22 10.2 50.3 66 4.2 39.6 0 0
03:19 1025 30.27 854 25.22 10.1 50.2 67 4.3 39.8 0 0
03:20 1025 30.27 854 25.22 10 49.9 67 4.2 39.6 0 0
03:21 1025 30.27 854 25.22 9.9 49.8 67 4.1 39.5 0 0
03:22 1025 30.27 854 25.22 9.8 49.7 67 4 39.3 0 0
03:23 1025 30.27 854 25.22 9.8 49.6 67 4.1 39.3 0 0
03:24 1025 30.27 854 25.22 9.7 49.4 68 4 39.2 0 0
03:25 1025 30.27 854 25.22 9.6 49.3 68 4 39.3 0 0
03:26 1025 30.27 854 25.22 9.5 49.1 68 4 39.3 0 0
03:27 1025 30.27 854 25.22 9.4 48.9 69 4 39.3 0 0
03:28 1025 30.27 854 25.22 9.3 48.7 69 4 39.2 0 0
03:29 1025 30.27 854 25.22 9.3 48.7 69 3.9 38.9 0 0
03:30 1025 30.27 854 25.22 9.3 48.7 69 3.9 39.1 0 0
03:31 1025 30.27 854 25.22 9.2 48.6 69 3.9 39 0 0
03:32 1025 30.27 854 25.22 8.9 48 70 3.8 38.8 0 0
03:33 1025 30.27 854 25.22 8.7 47.6 71 3.7 38.7 0 0
03:34 1025 30.27 854 25.22 8.4 47.2 72 3.8 38.8 0 0
03:35 1025 30.27 854 25.22 8.3 47 74 3.9 39.1 0 0
03:36 1025 30.27 854 25.22 8.3 47 72 3.5 38.4 0 0
03:37 1025 30.27 854 25.22 8.4 47.1 71 3.4 38 0 0
03:38 1025 30.27 854 25.22 8.1 46.6 72 3.3 38 0 0
03:39 1025 30.27 854 25.22 8 46.4 71 3.2 37.7 0 0
03:40 1025 30.27 854 25.22 8.2 46.7 70 3.1 37.5 0 0
03:41 1025 30.27 854 25.22 8.3 46.9 70 3.1 37.7 0 0
03:42 1025 30.27 854 25.22 8.7 47.6 68 3.1 37.5 0 0
03:43 1025 30.27 854 25.22 8.9 48 67 3.1 37.6 0 0
03:44 1025 30.27 854 25.22 8.8 47.9 67 3 37.5 0 0
03:45 1025 30.27 854 25.22 8.5 47.3 68 3 37.5 0 0
03:46 1025 30.27 854 25.22 8.3 46.9 70 3.2 37.7 0 0
03:47 1025 30.27 854 25.22 8.5 47.3 69 3.1 37.6 0 0
03:48 1025 30.27 854 25.22 8.7 47.6 68 3.2 37.7 0 0
03:49 1025 30.27 854 25.22 8.8 47.8 68 3.1 37.7 0 0
03:50 1025 30.27 854 25.22 8.6 47.6 68 3.1 37.5 0 0
03:51 1025 30.27 854 25.22 8.3 47 69 3 37.4 0 0
03:52 1025 30.27 854 25.22 7.9 46.2 71 2.9 37.3 0 0
03:53 1025 30.27 854 25.22 7.7 45.8 72 2.9 37.3 0 0
03:54 1025 30.27 854 25.22 7.5 45.6 73 3 37.3 0 0
03:55 1025 30.27 854 25.22 7.6 45.6 73 2.9 37.3 0 0
03:56 1025 30.27 854 25.22 7.6 45.7 72 3 37.3 0 0
03:57 1025 30.27 854 25.22 7.7 45.9 72 3 37.5 0 0
03:58 1025 30.27 854 25.22 7.8 46.1 72 3 37.4 0 0
03:59 1025 30.27 854 25.22 7.9 46.3 71 3 37.4 0 0
04:00 1025 30.27 854 25.22 8 46.4 71 3 37.4 0 0
04:01 1025 30.27 854 25.22 8.1 46.5 70 3 37.4 0 0
04:02 1025 30.27 854 25.22 8 46.5 70 2.9 37.3 0 0
04:03 1025 30.27 854 25.22 7.9 46.3 71 3 37.3 0 0
04:04 1025 30.27 854 25.22 7.7 45.9 71 2.9 37.2 0 0
04:05 1025 30.27 854 25.22 7.6 45.6 72 2.8 37.1 0 0
04:06 1025 30.27 854 25.22 7.4 45.3 72 2.8 37 0 0
04:07 1025 30.27 854 25.22 7.2 45 74 2.9 37.1 0 0
04:08 1025 30.27 854 25.22 7 44.7 75 2.9 37.2 0 0
04:09 1025 30.27 854 25.22 7 44.5 75 2.8 37.1 0 0
04:10 1025 30.27 854 25.22 7 44.6 75 2.9 37.2 0 0
04:11 1025 30.27 854 25.22 7 44.7 75 2.9 37.2 0 0
04:12 1025 30.27 854 25.22 7 44.5 75 2.8 37 0 0
04:13 1025 30.27 854 25.22 6.9 44.3 76 2.9 37.3 0 0
04:14 1025 30.27 854 25.22 6.8 44.3 76 2.9 37.1 0 0
04:15 1025 30.27 854 25.22 6.8 44.2 76 2.9 37.3 0 0
04:16 1025 30.27 855 25.25 6.7 44.1 77 3 37.4 0 0
04:17 1025 30.27 855 25.25 6.8 44.2 77 3.1 37.6 0 0
04:18 1025 30.27 855 25.25 6.9 44.3 77 3.2 37.7 0 0
04:19 1025 30.27 855 25.25 6.9 44.5 77 3.2 37.8 0 0
04:20 1025 30.27 855 25.25 7.1 44.7 77 3.2 37.8 0 0
04:21 1025 30.27 855 25.25 7.3 45.1 76 3.4 38.1 0 0
04:22 1025 30.27 855 25.25 7.3 45.2 76 3.4 38.2 0 0
04:23 1025 30.27 855 25.25 7.5 45.4 76 3.5 38.4 0 0
04:24 1025 30.27 855 25.25 7.6 45.6 76 3.6 38.6 0 0
04:25 1025 30.27 855 25.25 7.7 45.8 76 3.7 38.7 0 0
04:26 1025 30.27 855 25.25 7.7 45.9 76 3.8 38.9 0 0
04:27 1025 30.27 855 25.25 7.8 46 76 3.8 38.9 0 0
04:28 1025 30.27 855 25.25 7.8 46.1 76 3.9 39 0 0
04:29 1025 30.27 855 25.25 7.9 46.2 76 3.9 39.1 0 0
04:30 1026 30.3 855 25.25 8 46.3 76 4 39.1 0 0
04:31 1026 30.3 855 25.25 8.1 46.5 76 4 39.3 0 0
04:32 1026 30.3 855 25.25 8.1 46.6 76 4.1 39.4 0 0
04:33 1025 30.27 855 25.25 8.2 46.7 76 4.1 39.5 0 0
04:34 1025 30.27 855 25.25 8.3 46.9 75 4.2 39.5 0 0
04:35 1025 30.27 855 25.25 8.4 47 75 4.2 39.5 0 0
04:36 1025 30.27 855 25.25 8.5 47.2 75 4.2 39.6 0 0
04:37 1025 30.27 855 25.25 8.5 47.4 74 4.3 39.7 0 0
04:38 1025 30.27 855 25.25 8.6 47.4 74 4.2 39.6 0 0
04:39 1025 30.27 855 25.25 8.6 47.4 74 4.2 39.6 0 0
04:40 1026 30.3 855 25.25 8.6 47.5 74 4.2 39.6 0 0
04:41 1025 30.27 855 25.25 8.5 47.3 74 4.2 39.6 0 0
04:42 1025 30.27 855 25.25 8.3 46.9 76 4.2 39.6 0 0
04:43 1025 30.27 855 25.25 8.2 46.7 76 4.2 39.5 0 0
04:44 1026 30.3 855 25.25 8 46.4 76 4.1 39.4 0 0
04:45 1026 30.3 855 25.25 7.8 46.1 77 4.1 39.3 0 0
04:46 1026 30.3 855 25.25 7.6 45.7 78 4 39.2 0 0
04:47 1026 30.3 855 25.25 7.4 45.3 78 3.9 39 0 0
04:48 1026 30.3 855 25.25 7.4 45.4 78 3.9 39 0 0
04:49 1025 30.27 855 25.25 7.6 45.7 77 3.8 38.8 0 0
04:50 1025 30.27 855 25.25 7.7 45.9 76 3.7 38.7 0 0
04:51 1025 30.27 855 25.25 7.8 46.1 75 3.7 38.6 0 0
04:52 1025 30.27 855 25.25 7.9 46.2 75 3.7 38.6 0 0
04:53 1026 30.3 855 25.25 7.8 46 75 3.6 38.5 0 0
04:54 1026 30.3 855 25.25 7.7 45.8 75 3.6 38.4 0 0
04:55 1026 30.3 855 25.25 7.6 45.7 76 3.6 38.4 0 0
04:56 1026 30.3 855 25.25 7.5 45.6 76 3.6 38.5 0 0
04:57 1026 30.3 855 25.25 7.5 45.5 76 3.6 38.5 0 0
04:58 1026 30.3 855 25.25 7.4 45.3 77 3.6 38.5 0 0
04:59 1026 30.3 855 25.25 7.4 45.2 77 3.6 38.5 0 0
05:00 1026 30.3 855 25.25 7.3 45.1 77 3.6 38.5 0 0
05:01 1026 30.3 855 25.25 7.3 45.1 77 3.6 38.4 0 0
05:02 1026 30.3 855 25.25 7.3 45.1 78 3.6 38.5 0 0
05:03 1026 30.3 855 25.25 7.3 45.1 78 3.7 38.6 0 0
05:04 1026 30.3 855 25.25 7.3 45.1 78 3.7 38.7 0 0
05:05 1026 30.3 855 25.25 7.3 45.1 78 3.7 38.7 0 0
05:06 1026 30.3 855 25.25 7.5 45.4 77 3.7 38.6 0 0
05:07 1026 30.3 855 25.25 7.4 45.3 78 3.8 38.8 0 0
05:08 1026 30.3 855 25.25 7.3 45.2 78 3.7 38.7 0 0
05:09 1026 30.3 855 25.25 7.2 45 78 3.7 38.6 0 0
05:10 1026 30.3 855 25.25 7.2 44.9 78 3.7 38.6 0 0
05:11 1026 30.3 855 25.25 7.1 44.8 79 3.7 38.7 0 0
05:12 1026 30.3 855 25.25 7.1 44.7 79 3.6 38.5 0 0
05:13 1026 30.3 855 25.25 6.9 44.4 78 3.4 38.1 0 0
05:14 1026 30.3 855 25.25 6.8 44.2 80 3.6 38.5 0 0
05:15 1026 30.3 855 25.25 6.8 44.3 80 3.6 38.5 0 0
05:16 1026 30.3 855 25.25 6.8 44.3 80 3.6 38.4 0 0
05:17 1026 30.3 855 25.25 6.8 44.3 79 3.4 38.2 0 0
05:18 1026 30.3 855 25.25 6.7 44.1 79 3.4 38.1 0 0
05:19 1026 30.3 855 25.25 6.6 43.9 80 3.3 38 0 0
05:20 1026 30.3 855 25.25 6.6 43.8 79 3.3 37.9 0 0
05:21 1026 30.3 855 25.25 6.4 43.6 80 3.2 37.8 0 0
05:22 1026 30.3 855 25.25 6.3 43.3 81 3.3 37.9 0 0
05:23 1026 30.3 855 25.25 6.3 43.3 79 3 37.4 0 0
05:24 1026 30.3 855 25.25 6.2 43.2 81 3.2 37.7 0 0
05:25 1026 30.3 855 25.25 6.3 43.3 81 3.3 37.9 0 0
05:26 1026 30.3 855 25.25 6.4 43.5 79 3 37.4 0 0
05:27 1026 30.3 855 25.25 6.3 43.4 78 2.8 37 0 0
05:28 1026 30.3 855 25.25 6.2 43.2 80 3 37.4 0 0
05:29 1026 30.3 855 25.25 6.3 43.3 80 3.1 37.5 0 0
05:30 1026 30.3 855 25.25 6.3 43.4 80 3 37.5 0 0
05:31 1026 30.3 855 25.25 6.4 43.5 80 3.2 37.7 0 0
05:32 1026 30.3 855 25.25 6.5 43.8 81 3.4 38.2 0 0
05:33 1026 30.3 855 25.25 6.7 44.1 79 3.3 38 0 0
05:34 1026 30.3 855 25.25 6.9 44.5 79 3.5 38.3 0 0
05:35 1026 30.3 855 25.25 7.2 45 77 3.5 38.3 0 0
05:36 1026 30.3 855 25.25 7.5 45.5 76 3.5 38.4 0 0
05:37 1026 30.3 855 25.25 7.7 45.9 73 3.3 38 0 0
05:38 1026 30.3 855 25.25 7.6 45.7 74 3.3 37.9 0 0
05:39 1026 30.3 855 25.25 7.5 45.5 75 3.3 38 0 0
05:40 1026 30.3 855 25.25 7.4 45.3 75 3.3 38 0 0
05:41 1026 30.3 855 25.25 7.5 45.4 75 3.2 37.8 0 0
05:42 1026 30.3 855 25.25 7.3 45.2 75 3.2 37.8 0 0
05:43 1026 30.3 855 25.25 7.2 45 76 3.2 37.8 0 0
05:44 1026 30.3 855 25.25 7.2 45 76 3.3 37.9 0 0
05:45 1026 30.3 855 25.25 7.2 45 76 3.3 38 0 0
05:46 1026 30.3 855 25.25 7.1 44.8 77 3.4 38.1 0 0
05:47 1026 30.3 855 25.25 7.1 44.7 77 3.4 38.1 0 0
05:48 1026 30.3 855 25.25 7 44.5 78 3.4 38 0 0
05:49 1026 30.3 855 25.25 6.8 44.3 78 3.3 38 0 0
05:50 1026 30.3 855 25.25 6.7 44.1 79 3.3 37.9 0 0
05:51 1026 30.3 855 25.25 6.7 44.1 79 3.3 37.9 0 0
05:52 1026 30.3 855 25.25 6.7 44 79 3.4 38.1 0 0
05:53 1026 30.3 855 25.25 6.6 43.8 80 3.3 38 0 0
05:54 1026 30.3 855 25.25 6.5 43.6 80 3.4 38 0 0
05:55 1026 30.3 855 25.25 6.5 43.6 81 3.4 38.2 0 0
05:56 1026 30.3 855 25.25 6.5 43.8 81 3.5 38.3 0 0
05:57 1026 30.3 855 25.25 6.6 44 80 3.4 38.2 0 0
05:58 1026 30.3 855 25.25 6.6 43.9 80 3.4 38.1 0 0
05:59 1026 30.3 855 25.25 6.6 43.9 81 3.5 38.3 0 0
06:00 1026 30.3 855 25.25 6.6 43.9 81 3.6 38.5 0 0
06:01 1026 30.3 855 25.25 6.9 44.4 79 3.6 38.4 0 0
06:02 1026 30.3 855 25.25 7.1 44.7 79 3.7 38.6 0 0
06:03 1026 30.3 855 25.25 7.1 44.8 79 3.7 38.7 0 0
06:04 1026 30.3 855 25.25 7.2 44.9 79 3.7 38.7 0 0
06:05 1026 30.3 855 25.25 7.2 44.9 79 3.8 38.8 0 0
06:06 1026 30.3 855 25.25 7.1 44.8 79 3.7 38.7 0 0
06:07 1026 30.3 855 25.25 7.1 44.7 79 3.7 38.6 0 0
06:08 1026 30.3 855 25.25 7 44.6 80 3.8 38.8 0 0
06:09 1026 30.3 855 25.25 7 44.5 80 3.8 38.8 0 0
06:10 1026 30.3 855 25.25 6.9 44.5 80 3.7 38.6 0 0
06:11 1026 30.3 855 25.25 7 44.6 79 3.7 38.6 0 0
06:12 1026 30.3 855 25.25 7 44.5 80 3.7 38.6 0 0
06:13 1026 30.3 855 25.25 7 44.5 80 3.7 38.7 0 0
06:14 1026 30.3 855 25.25 7 44.6 79 3.7 38.7 0 0
06:15 1026 30.3 855 25.25 7.1 44.7 79 3.8 38.8 0 0
06:16 1026 30.3 855 25.25 7.1 44.8 79 3.8 38.8 0 0
06:17 1026 30.3 855 25.25 7.1 44.8 80 3.8 38.9 0 0
06:18 1026 30.3 855 25.25 7.2 44.9 79 3.8 38.8 0 0
06:19 1026 30.3 855 25.25 7.2 44.9 79 3.7 38.7 0 0
06:20 1026 30.3 855 25.25 7.1 44.9 79 3.8 38.9 0 0
06:21 1026 30.3 855 25.25 7.2 44.9 79 3.8 38.9 0 0
06:22 1026 30.3 855 25.25 7.2 45 79 3.8 38.9 0 0
06:23 1026 30.3 855 25.25 7.2 44.9 79 3.8 38.9 0 0
06:24 1026 30.3 855 25.25 7.2 45 79 3.9 38.9 0 0
06:25 1026 30.3 855 25.25 7.1 44.8 80 3.9 39 0 0
06:26 1026 30.3 855 25.25 7.1 44.9 80 4 39.2 0 0
06:27 1026 30.3 855 25.25 7.2 45 80 4 39.3 0 0
06:28 1026 30.3 855 25.25 7.4 45.3 80 4.1 39.5 0 0
06:29 1026 30.3 855 25.25 7.5 45.5 79 4.2 39.5 0 0
06:30 1026 30.3 855 25.25 7.6 45.7 79 4.1 39.5 0 0
06:31 1026 30.3 855 25.25 7.7 45.9 78 4.1 39.4 0 0
06:32 1026 30.3 855 25.25 7.9 46.1 77 4.1 39.4 0 0
06:33 1026 30.3 855 25.25 8 46.4 76 4.1 39.4 0 0
06:34 1026 30.3 855 25.25 8.1 46.6 76 4.1 39.4 0 0
06:35 1026 30.3 855 25.25 8.2 46.8 76 4.2 39.5 0 0
06:36 1026 30.3 855 25.25 8.3 46.9 75 4.1 39.4 0 0
06:37 1026 30.3 855 25.25 8.4 47.1 75 4.2 39.6 0 0
06:38 1026 30.3 855 25.25 8.4 47.1 75 4.2 39.5 0 0
06:39 1026 30.3 855 25.25 8.4 47.1 75 4.2 39.5 0 0
06:40 1026 30.3 855 25.25 8.4 47 75 4.2 39.5 0 0
06:41 1026 30.3 855 25.25 8.3 46.9 75 4.1 39.4 0 0
06:42 1026 30.3 855 25.25 8.3 46.9 75 4.1 39.5 0 0
06:43 1026 30.3 855 25.25 8.3 46.9 75 4.1 39.5 0 0
06:44 1026 30.3 855 25.25 8.3 46.9 75 4.1 39.4 0 0
06:45 1026 30.3 855 25.25 8.3 47 74 4.1 39.3 0 0
06:46 1026 30.3 855 25.25 8.5 47.3 73 3.9 39.1 0 0
06:47 1026 30.3 855 25.25 8.6 47.5 72 4 39.1 0 0
06:48 1026 30.3 855 25.25 8.7 47.7 72 4 39.3 0 0
06:49 1026 30.3 855 25.25 8.8 47.8 72 4.1 39.3 0 0
06:50 1026 30.3 855 25.25 8.7 47.7 72 4 39.2 0 0
06:51 1026 30.3 855 25.25 8.8 47.8 71 3.8 38.8 0 0
06:52 1026 30.3 855 25.25 8.9 48 71 3.9 39.1 0 0
06:53 1026 30.3 855 25.25 9 48.1 71 4.1 39.4 0 0
06:54 1026 30.3 855 25.25 8.9 48 71 3.9 39.1 0 0
06:55 1026 30.3 855 25.25 9 48.2 68 3.5 38.2 0 0
06:56 1026 30.3 855 25.25 9.2 48.6 67 3.4 38 0 0
06:57 1026 30.3 855 25.25 9.4 49 66 3.5 38.3 0 0
06:58 1026 30.3 855 25.25 9.5 49.2 67 3.7 38.7 0 0
06:59 1026 30.3 855 25.25 9.6 49.2 68 3.9 39 0 0
07:00 1026 30.3 855 25.25 9.5 49 66 3.5 38.3 0 0
07:01 1026 30.3 855 25.25 9.5 49.1 67 3.7 38.6 0 0
07:02 1026 30.3 855 25.25 9.5 49 67 3.7 38.6 0 0
07:03 1026 30.3 855 25.25 9.4 49 67 3.7 38.7 0 0
07:04 1026 30.3 855 25.25 9.4 48.9 68 3.8 38.8 0 0
07:05 1026 30.3 855 25.25 9.3 48.7 68 3.8 38.8 0 0
07:06 1026 30.3 855 25.25 9.3 48.7 68 3.6 38.5 0 0
07:07 1026 30.3 855 25.25 9.3 48.7 68 3.8 38.8 0 0
07:08 1026 30.3 855 25.25 9.3 48.7 68 3.8 38.8 0 0
07:09 1026 30.3 855 25.25 9.2 48.6 69 3.9 38.9 0 0
07:10 1026 30.3 855 25.25 9.1 48.4 70 3.9 39.1 0 0
07:11 1026 30.3 855 25.25 9 48.3 70 4 39.1 0 0
07:12 1026 30.3 855 25.25 9 48.1 71 4 39.1 0 0
07:13 1026 30.3 855 25.25 8.9 48 72 4.1 39.3 0 0
07:14 1026 30.3 855 25.25 8.7 47.7 72 4 39.1 0 0
07:15 1026 30.3 855 25.25 8.7 47.6 72 4 39.1 0 0
07:16 1026 30.3 855 25.25 8.7 47.6 73 4.1 39.3 0 0
07:17 1026 30.3 855 25.25 8.6 47.5 73 4.1 39.3 0 0
07:18 1026 30.3 855 25.25 8.6 47.4 73 4 39.2 0 0
07:19 1026 30.3 855 25.25 8.6 47.5 73 4 39.3 0 0
07:20 1026 30.3 855 25.25 8.6 47.5 73 4.1 39.3 0 0
07:21 1026 30.3 855 25.25 8.6 47.5 73 4.1 39.5 0 0
07:22 1026 30.3 855 25.25 8.6 47.4 74 4.1 39.5 0 0
07:23 1026 30.3 855 25.25 8.5 47.4 74 4.2 39.6 0 0
07:24 1026 30.3 855 25.25 8.5 47.4 74 4.2 39.6 0 0
07:25 1026 30.3 855 25.25 8.5 47.4 75 4.3 39.7 0 0
07:26 1026 30.3 855 25.25 8.5 47.4 74 4.3 39.7 0 0
07:27 1026 30.3 855 25.25 8.6 47.5 75 4.4 39.8 0 0
07:28 1026 30.3 855 25.25 8.7 47.6 74 4.3 39.7 0 0
07:29 1026 30.3 855 25.25 8.7 47.7 74 4.4 39.9 0 0
07:30 1026 30.3 856 25.28 8.7 47.7 75 4.5 40.1 0 0
07:31 1026 30.3 856 25.28 8.7 47.7 75 4.5 40.1 0 0
07:32 1026 30.3 856 25.28 8.7 47.6 75 4.6 40.2 0 0
07:33 1026 30.3 856 25.28 8.6 47.5 75 4.4 40 0 0
07:34 1026 30.3 856 25.28 8.7 47.6 75 4.5 40.1 0 0
07:35 1026 30.3 856 25.28 8.6 47.5 75 4.5 40 0 0
07:36 1026 30.3 856 25.28 8.6 47.6 75 4.5 40.2 0 0
07:37 1026 30.3 856 25.28 8.6 47.5 75 4.5 40.2 0 0
07:38 1026 30.3 856 25.28 8.6 47.5 76 4.6 40.2 0 0
07:39 1026 30.3 856 25.28 8.6 47.4 76 4.6 40.2 0 0
07:40 1026 30.3 856 25.28 8.5 47.4 76 4.6 40.2 0 0
07:41 1026 30.3 856 25.28 8.5 47.3 76 4.5 40 0 0
07:42 1026 30.3 856 25.28 8.5 47.3 75 4.4 39.9 0 0
07:43 1026 30.3 856 25.28 8.6 47.4 74 4.2 39.6 0 0
07:44 1026 30.3 856 25.28 8.6 47.5 74 4.4 39.9 0 0
07:45 1026 30.3 856 25.28 8.6 47.5 74 4.3 39.7 0 0
07:46 1026 30.3 856 25.28 8.6 47.4 74 4.3 39.7 0 0
07:47 1026 30.3 856 25.28 8.6 47.4 74 4.1 39.5 0 0
07:48 1026 30.3 856 25.28 8.6 47.5 74 4.3 39.7 0 0
07:49 1026 30.3 856 25.28 8.6 47.4 74 4.3 39.7 0 0
07:50 1026 30.3 856 25.28 8.6 47.4 75 4.4 39.9 0 0
07:51 1026 30.3 856 25.28 8.5 47.3 76 4.5 40 0 0
07:52 1026 30.3 856 25.28 8.4 47.1 75 4.3 39.8 0 0
07:53 1026 30.3 856 25.28 8.4 47 75 4.3 39.7 0 0
07:54 1026 30.3 856 25.28 8.4 47 75 4.2 39.6 0 0
07:55 1026 30.3 856 25.28 8.4 47.1 75 4.2 39.6 0 0
07:56 1026 30.3 856 25.28 8.4 47.1 75 4.2 39.6 0 0
07:57 1026 30.3 856 25.28 8.5 47.2 75 4.2 39.6 0 0
07:58 1026 30.3 856 25.28 8.5 47.3 75 4.4 39.9 0 0
07:59 1026 30.3 856 25.28 8.4 47.1 76 4.5 40.1 0 0
08:00 1026 30.3 856 25.28 8.4 47.1 77 4.6 40.2 0 0
08:01 1026 30.3 856 25.28 8.3 47 77 4.6 40.2 0 0
08:02 1026 30.3 856 25.28 8.4 47 77 4.6 40.4 0 0
08:03 1026 30.3 856 25.28 8.4 47.1 77 4.7 40.4 0 0
08:04 1026 30.3 856 25.28 8.5 47.2 77 4.7 40.5 0 0
08:05 1027 30.33 856 25.28 8.5 47.2 77 4.7 40.4 0 0
08:06 1027 30.33 856 25.28 8.5 47.3 77 4.6 40.3 0 0
08:07 1027 30.33 856 25.28 8.6 47.4 77 4.7 40.4 0 0
08:08 1027 30.33 856 25.28 8.6 47.4 77 4.7 40.5 0 0
08:09 1027 30.33 856 25.28 8.5 47.4 76 4.7 40.4 0 0
08:10 1027 30.33 856 25.28 8.5 47.3 77 4.7 40.4 0 0
08:11 1027 30.33 856 25.28 8.5 47.3 77 4.7 40.5 0 0
08:12 1027 30.33 856 25.28 8.5 47.2 77 4.7 40.5 0 0
08:13 1027 30.33 856 25.28 8.4 47 77 4.6 40.4 0 0
08:14 1027 30.33 856 25.28 8.3 46.9 78 4.6 40.3 0 0
08:15 1027 30.33 856 25.28 8.2 46.8 78 4.6 40.4 0 0
08:16 1027 30.33 856 25.28 8.1 46.6 78 4.6 40.3 0 0
08:17 1027 30.33 856 25.28 8.1 46.5 79 4.6 40.4 0 0
08:18 1027 30.33 856 25.28 8 46.3 79 4.5 40.1 0 0
08:19 1027 30.33 856 25.28 7.9 46.2 79 4.5 40 0 0
08:20 1027 30.33 856 25.28 7.8 46.1 79 4.4 39.9 0 0
08:21 1027 30.33 856 25.28 7.8 46 79 4.4 39.9 0 0
08:22 1027 30.33 856 25.28 7.6 45.8 79 4.3 39.7 0 0
08:23 1027 30.33 856 25.28 7.6 45.6 80 4.4 39.9 0 0
08:24 1027 30.33 856 25.28 7.5 45.5 81 4.4 39.9 0 0
08:25 1027 30.33 856 25.28 7.5 45.5 81 4.5 40.1 0 0
08:26 1027 30.33 856 25.28 7.6 45.7 82 4.7 40.4 0 0
08:27 1027 30.33 856 25.28 7.8 46 81 4.8 40.6 0 0
08:28 1027 30.33 856 25.28 7.9 46.3 81 4.8 40.7 0 0
08:29 1027 30.33 856 25.28 8.1 46.6 80 4.9 40.8 0 0
08:30 1027 30.33 856 25.28 8.3 47 79 4.9 40.9 0 0
08:31 1027 30.33 856 25.28 8.5 47.4 78 4.8 40.7 0 0
08:32 1027 30.33 856 25.28 8.8 47.8 76 4.8 40.6 0 0
08:33 1027 30.33 856 25.28 9 48.2 74 4.7 40.5 0 0
08:34 1027 30.33 856 25.28 9.2 48.5 74 4.8 40.7 0 0
08:35 1027 30.33 856 25.28 9.5 49 73 4.9 40.8 0 0
08:36 1027 30.33 856 25.28 9.7 49.5 70 4.4 40 0 0
08:37 1027 30.33 856 25.28 9.9 49.8 71 4.8 40.7 0 0
08:38 1027 30.33 856 25.28 10.1 50.2 69 4.7 40.5 0 0
08:39 1027 30.33 856 25.28 10.3 50.5 69 4.8 40.6 0 0
08:40 1027 30.33 856 25.28 10.4 50.8 69 5 41 0 0
08:41 1027 30.33 856 25.28 10.5 51 68 4.9 40.8 0 0
08:42 1027 30.33 856 25.28 10.7 51.2 68 5 41.1 0 0
08:43 1027 30.33 856 25.28 10.9 51.5 67 5 41 0 0
08:44 1027 30.33 856 25.28 11 51.7 67 5.2 41.3 0 0
08:45 1027 30.33 856 25.28 11 51.9 65 4.7 40.4 0 0
08:46 1027 30.33 856 25.28 11.1 51.9 65 4.8 40.7 0 0
08:47 1027 30.33 856 25.28 11.2 52.1 64 4.7 40.4 0 0
08:48 1027 30.33 856 25.28 11.3 52.3 65 4.9 40.9 0 0
08:49 1027 30.33 856 25.28 11.3 52.4 64 4.8 40.7 0 0
08:50 1027 30.33 856 25.28 11.4 52.5 64 4.9 40.9 0 0
08:51 1027 30.33 856 25.28 11.4 52.6 64 4.9 40.8 0 0
08:52 1027 30.33 856 25.28 11.5 52.8 64 5.1 41.1 0 0
08:53 1027 30.33 856 25.28 11.6 52.9 64 5 41 0 0
08:54 1027 30.33 856 25.28 11.7 53.1 65 5.3 41.6 0 0
08:55 1027 30.33 856 25.28 11.8 53.3 64 5.4 41.7 0 0
08:56 1027 30.33 856 25.28 11.9 53.5 63 5.2 41.4 0 0
08:57 1027 30.33 856 25.28 12 53.6 63 5.2 41.3 0 0
08:58 1027 30.33 856 25.28 12 53.6 63 5.2 41.4 0 0
08:59 1027 30.33 856 25.28 12 53.6 63 5.2 41.3 0 0
09:00 1027 30.33 856 25.28 12.1 53.7 62 5.1 41.1 0 0
09:01 1027 30.33 856 25.28 12.1 53.8 62 5 41 0 0
09:02 1027 30.33 856 25.28 12.2 54 63 5.4 41.7 0 0
09:03 1027 30.33 856 25.28 12.4 54.3 63 5.7 42.2 0 0
09:04 1027 30.33 856 25.28 12.5 54.5 62 5.5 41.9 0 0
09:05 1027 30.33 856 25.28 12.6 54.7 61 5.3 41.5 0 0
09:06 1027 30.33 856 25.28 12.6 54.7 62 5.5 42 0 0
09:07 1027 30.33 856 25.28 12.7 54.9 60 5.2 41.4 0 0
09:08 1027 30.33 856 25.28 12.8 55 61 5.4 41.7 0 0
09:09 1027 30.33 856 25.28 12.8 55 60 5.4 41.7 0 0
09:10 1027 30.33 856 25.28 12.9 55.1 60 5.3 41.5 0 0
09:11 1027 30.33 856 25.28 13 55.4 60 5.5 41.8 0 0
09:12 1027 30.33 856 25.28 13 55.4 59 5.3 41.5 0 0
09:13 1027 30.33 856 25.28 13.1 55.5 60 5.6 42 0 0
09:14 1027 30.33 856 25.28 13.1 55.5 61 5.7 42.3 0 0
09:15 1027 30.33 856 25.28 13.1 55.6 58 5.1 41.2 0 0
09:16 1027 30.33 856 25.28 13.1 55.6 59 5.4 41.8 0 0
09:17 1027 30.33 856 25.28 13.2 55.7 59 5.4 41.7 0 0
09:18 1027 30.33 856 25.28 13.2 55.8 61 6 42.8 0 0
09:19 1027 30.33 856 25.28 13.4 56 59 5.7 42.2 0 0
09:20 1027 30.33 856 25.28 13.5 56.3 58 5.5 41.9 0 0
09:21 1027 30.33 856 25.28 13.5 56.4 59 5.7 42.3 0 0
09:22 1027 30.33 856 25.28 13.6 56.4 57 5.3 41.6 0 0
09:23 1027 30.33 856 25.28 13.7 56.6 59 5.9 42.6 0 0
09:24 1027 30.33 856 25.28 13.8 56.8 59 5.9 42.6 0 0
09:25 1027 30.33 856 25.28 13.9 57 57 5.7 42.2 0 0
09:26 1027 30.33 856 25.28 14 57.1 56 5.5 41.9 0 0
09:27 1027 30.33 856 25.28 14 57.2 56 5.6 42 0 0
09:28 1027 30.33 856 25.28 14 57.2 57 5.6 42.1 0 0
09:29 1027 30.33 856 25.28 14.1 57.3 56 5.6 42 0 0
09:30 1027 30.33 856 25.28 14.2 57.5 56 5.6 42 0 0
09:31 1027 30.33 856 25.28 14.3 57.7 57 5.9 42.6 0 0
09:32 1027 30.33 856 25.28 14.3 57.8 55 5.4 41.7 0 0
09:33 1027 30.33 856 25.28 14.4 57.8 54 5.4 41.7 0 0
09:34 1027 30.33 856 25.28 14.4 57.8 54 5.4 41.7 0 0
09:35 1027 30.33 856 25.28 14.5 58 54 5.5 41.8 0 0
09:36 1027 30.33 856 25.28 14.5 58.1 55 5.7 42.2 0 0
09:37 1027 30.33 856 25.28 14.6 58.2 54 5.6 42 0 0
09:38 1027 30.33 856 25.28 14.7 58.4 54 5.5 41.9 0 0
09:39 1027 30.33 856 25.28 14.7 58.5 53 5.4 41.7 0 0
09:40 1027 30.33 856 25.28 14.8 58.7 54 5.7 42.3 0 0
09:41 1027 30.33 856 25.28 14.9 58.8 54 5.6 42.1 0 0
09:42 1027 30.33 856 25.28 14.9 58.8 53 5.6 42 0 0
09:43 1027 30.33 856 25.28 15.1 59.1 52 5.5 41.9 0 0
09:44 1027 30.33 856 25.28 15.1 59.2 52 5.4 41.7 0 0
09:45 1027 30.33 856 25.28 15.1 59.2 53 5.7 42.3 0 0
09:46 1027 30.33 856 25.28 15.2 59.4 50 4.9 40.9 0 0
09:47 1027 30.33 856 25.28 15.2 59.4 50 5.1 41.1 0 0
09:48 1027 30.33 856 25.28 15.3 59.6 51 5.2 41.3 0 0
09:49 1027 30.33 856 25.28 15.3 59.6 51 5.2 41.4 0 0
09:50 1027 30.33 856 25.28 15.4 59.7 48 4.4 39.9 0 0
09:51 1027 30.33 856 25.28 15.4 59.7 49 4.8 40.6 0 0
09:52 1027 30.33 856 25.28 15.4 59.8 50 5.2 41.4 0 0
09:53 1027 30.33 856 25.28 15.4 59.8 49 4.9 40.8 0 0
09:54 1027 30.33 856 25.28 15.5 60 47 4.4 39.9 0 0
09:55 1027 30.33 856 25.28 15.6 60.1 48 4.7 40.4 0 0
09:56 1027 30.33 856 25.28 15.7 60.2 47 4.5 40.1 0 0
09:57 1027 30.33 856 25.28 15.7 60.2 48 4.7 40.4 0 0
09:58 1027 30.33 856 25.28 15.8 60.4 47 4.4 40 0 0
09:59 1027 30.33 856 25.28 15.8 60.4 48 4.8 40.6 0 0
10:00 1027 30.33 856 25.28 15.8 60.4 45 4.1 39.5 0 0
10:01 1027 30.33 856 25.28 15.8 60.4 46 4.4 40 0 0
10:02 1027 30.33 856 25.28 15.8 60.5 46 4.4 39.9 0 0
10:03 1027 30.33 856 25.28 15.9 60.5 46 4.5 40 0 0
10:04 1027 30.33 856 25.28 15.9 60.6 46 4.2 39.6 0 0
10:05 1027 30.33 856 25.28 15.9 60.6 46 4.4 39.9 0 0
10:06 1027 30.33 856 25.28 15.9 60.7 46 4.3 39.8 0 0
10:07 1027 30.33 856 25.28 15.9 60.5 46 4.2 39.6 0 0
10:08 1027 30.33 856 25.28 15.8 60.4 45 4 39.3 0 0
10:09 1027 30.33 856 25.28 15.8 60.5 46 4.2 39.6 0 0
10:10 1027 30.33 856 25.28 15.9 60.7 46 4.3 39.7 0 0
10:11 1027 30.33 856 25.28 15.8 60.5 45 4 39.1 0 0
10:12 1027 30.33 856 25.28 15.9 60.6 45 4.2 39.6 0 0
10:13 1027 30.33 856 25.28 16 60.7 47 4.8 40.6 0 0
10:14 1027 30.33 856 25.28 16.1 60.9 46 4.7 40.4 0 0
10:15 1027 30.33 856 25.28 16.1 61 43 3.8 38.8 0 0
10:16 1027 30.33 856 25.28 16.1 61 45 4.2 39.6 0 0
10:17 1027 30.33 856 25.28 16 60.7 45 4.1 39.4 0 0
10:18 1027 30.33 856 25.28 16 60.7 45 4 39.3 0 0
10:19 1027 30.33 856 25.28 16 60.7 45 4 39.2 0 0
10:20 1027 30.33 856 25.28 16 60.9 44 3.8 38.8 0 0
10:21 1027 30.33 856 25.28 16 60.8 43 3.6 38.6 0 0
10:22 1027 30.33 856 25.28 16 60.8 44 3.7 38.7 0 0
10:23 1027 30.33 856 25.28 16.1 61.1 44 4 39.2 0 0
10:24 1027 30.33 856 25.28 16.3 61.3 44 4.1 39.4 0 0
10:25 1027 30.33 856 25.28 16.3 61.4 44 4.3 39.7 0 0
10:26 1027 30.33 856 25.28 16.3 61.4 44 4 39.3 0 0
10:27 1027 30.33 856 25.28 16.3 61.3 44 4.2 39.5 0 0
10:28 1027 30.33 856 25.28 16.3 61.4 44 4.2 39.5 0 0
10:29 1027 30.33 856 25.28 16.3 61.4 43 3.9 39 0 0
10:30 1027 30.33 856 25.28 16.4 61.5 44 4.1 39.4 0 0
10:31 1027 30.33 856 25.28 16.3 61.4 42 3.6 38.5 0 0
10:32 1027 30.33 856 25.28 16.2 61.1 45 4.2 39.6 0 0
10:33 1027 30.33 856 25.28 16.2 61.1 45 4.2 39.6 0 0
10:34 1027 30.33 856 25.28 16.2 61.1 44 4 39.3 0 0
10:35 1027 30.33 856 25.28 16.2 61.2 44 4 39.2 0 0
10:36 1027 30.33 856 25.28 16.3 61.3 44 4 39.2 0 0
10:37 1027 30.33 856 25.28 16.4 61.6 43 3.9 39.1 0 0
10:38 1027 30.33 856 25.28 16.6 61.8 43 4.1 39.4 0 0
10:39 1027 30.33 856 25.28 16.6 61.9 42 3.7 38.7 0 0
10:40 1027 30.33 856 25.28 16.5 61.7 45 4.6 40.4 0 0
10:41 1027 30.33 856 25.28 16.5 61.7 42 3.7 38.6 0 0
10:42 1027 30.33 856 25.28 16.6 61.9 41 3.6 38.5 0 0
10:43 1027 30.33 856 25.28 16.6 61.9 42 3.7 38.7 0 0
10:44 1027 30.33 856 25.28 16.5 61.7 43 3.9 39 0 0
10:45 1027 30.33 856 25.28 16.6 62 42 3.7 38.6 0 0
10:46 1027 30.33 856 25.28 16.8 62.2 43 4.4 39.8 0 0
10:47 1027 30.33 856 25.28 16.9 62.3 43 4.3 39.8 0 0
10:48 1027 30.33 856 25.28 17 62.6 43 4.3 39.7 0 0
10:49 1027 30.33 856 25.28 17.1 62.7 42 4.1 39.3 0 0
10:50 1027 30.33 856 25.28 17.1 62.7 43 4.5 40 0 0
10:51 1027 30.33 857 25.31 17.1 62.8 42 4.3 39.8 0 0
10:52 1027 30.33 856 25.28 17.2 62.9 40 3.7 38.6 0 0
10:53 1027 30.33 856 25.28 17.1 62.8 42 4.1 39.4 0 0
10:54 1027 30.33 857 25.31 17 62.5 42 3.9 39.1 0 0
10:55 1027 30.33 857 25.31 16.9 62.4 42 4 39.3 0 0
10:56 1027 30.33 857 25.31 16.8 62.3 41 3.5 38.3 0 0
10:57 1027 30.33 857 25.31 16.7 62.1 43 4.1 39.4 0 0
10:58 1027 30.33 857 25.31 16.7 62.1 42 4 39.2 0 0
10:59 1027 30.33 857 25.31 16.7 62.1 43 4.1 39.4 0 0
11:00 1027 30.33 857 25.31 16.7 62 42 3.8 38.9 0 0
11:01 1027 30.33 857 25.31 16.7 62.1 43 4.2 39.6 0 0
11:02 1027 30.33 857 25.31 16.8 62.2 42 4 39.2 0 0
11:03 1027 30.33 856 25.28 16.8 62.2 41 3.7 38.6 0 0
11:04 1027 30.33 856 25.28 16.8 62.2 44 4.5 40 0 0
11:05 1027 30.33 856 25.28 16.9 62.3 43 4.3 39.7 0 0
11:06 1027 30.33 856 25.28 16.9 62.4 42 3.9 39.1 0 0
11:07 1027 30.33 856 25.28 16.9 62.4 41 3.6 38.6 0 0
11:08 1027 30.33 856 25.28 16.9 62.5 42 4.1 39.3 0 0
11:09 1027 30.33 856 25.28 17 62.6 42 4.1 39.5 0 0
11:10 1027 30.33 857 25.31 17.1 62.8 41 4 39.2 0 0
11:11 1027 30.33 857 25.31 17.2 63 42 4.3 39.8 0 0
11:12 1027 30.33 857 25.31 17.3 63.1 39 3.4 38.2 0 0
11:13 1027 30.33 856 25.28 17.2 62.9 41 3.8 38.8 0 0
11:14 1027 30.33 857 25.31 17.1 62.8 40 3.4 38.2 0 0
11:15 1027 30.33 856 25.28 17.2 63 42 4.2 39.6 0 0
11:16 1027 30.33 857 25.31 17.3 63.1 41 3.9 39 0 0
11:17 1027 30.33 857 25.31 17.3 63.1 40 3.8 38.9 0 0
11:18 1027 30.33 856 25.28 17.3 63.2 40 3.8 38.8 0 0
11:19 1027 30.33 857 25.31 17.3 63.1 39 3.4 38.2 0 0
11:20 1027 30.33 857 25.31 17.2 63 41 3.9 39.1 0 0
11:21 1027 30.33 857 25.31 17.2 62.9 41 3.9 39 0 0
11:22 1027 30.33 857 25.31 17.1 62.7 41 4 39.2 0 0
11:23 1027 30.33 857 25.31 17.1 62.7 41 3.7 38.7 0 0
11:24 1027 30.33 857 25.31 17 62.6 42 4 39.2 0 0
11:25 1027 30.33 856 25.28 17.1 62.7 43 4.5 40.1 0 0
11:26 1027 30.33 856 25.28 17.2 63 43 4.6 40.3 0 0
11:27 1027 30.33 856 25.28 17.3 63.1 40 3.8 38.9 0 0
11:28 1027 30.33 856 25.28 17.2 63 42 4.4 40 0 0
11:29 1027 30.33 856 25.28 17.2 62.9 42 4.4 40 0 0
11:30 1027 30.33 856 25.28 17.2 63 40 3.7 38.7 0 0
11:31 1027 30.33 856 25.28 17.1 62.8 41 3.9 39.1 0 0
11:32 1027 30.33 856 25.28 17.1 62.8 42 4.1 39.3 0 0
11:33 1027 30.33 856 25.28 17.2 63 39 3.2 37.7 0 0
11:34 1027 30.33 856 25.28 17.2 63 39 3.4 38.2 0 0
11:35 1027 30.33 856 25.28 17.3 63.2 39 3.2 37.8 0 0
11:36 1027 30.33 856 25.28 17.4 63.3 39 3.3 37.9 0 0
11:37 1027 30.33 856 25.28 17.3 63.2 40 3.7 38.7 0 0
11:38 1027 30.33 856 25.28 17.4 63.3 40 3.7 38.6 0 0
11:39 1027 30.33 856 25.28 17.5 63.6 38 3.2 37.7 0 0
11:40 1027 30.33 856 25.28 17.7 63.8 38 3.2 37.8 0 0
11:41 1027 30.33 856 25.28 17.6 63.8 39 3.8 38.8 0 0
11:42 1027 30.33 856 25.28 17.8 64 38 3.4 38 0 0
11:43 1027 30.33 856 25.28 18 64.3 37 3.4 38.1 0 0
11:44 1027 30.33 856 25.28 18.1 64.6 37 3.1 37.6 0 0
11:45 1027 30.33 856 25.28 18.1 64.7 37 3.4 38.1 0 0
11:46 1027 30.33 856 25.28 18.1 64.7 38 3.6 38.4 0 0
11:47 1027 30.33 856 25.28 18.2 64.7 38 3.6 38.4 0 0
11:48 1027 30.33 856 25.28 18.2 64.8 37 3.4 38.2 0 0
11:49 1027 30.33 856 25.28 18.2 64.8 37 3.3 38 0 0
11:50 1027 30.33 856 25.28 18.2 64.7 37 3.5 38.3 0 0
11:51 1027 30.33 856 25.28 18.2 64.8 37 3.4 38.2 0 0
11:52 1027 30.33 856 25.28 18.1 64.5 37 3.4 38.1 0 0
11:53 1027 30.33 856 25.28 17.9 64.3 38 3.5 38.2 0 0
11:54 1027 30.33 856 25.28 18 64.3 36 2.9 37.2 0 0
11:55 1027 30.33 856 25.28 18.1 64.5 36 2.9 37.3 0 0
11:56 1027 30.33 856 25.28 18.1 64.5 35 2.7 36.8 0 0
11:57 1027 30.33 856 25.28 18.1 64.5 36 3 37.5 0 0
11:58 1027 30.33 856 25.28 18.2 64.8 34 2.4 36.3 0 0
11:59 1027 30.33 856 25.28 18.2 64.8 35 2.5 36.5 0 0
12:00 1027 30.33 856 25.28 18.1 64.7 37 3.2 37.7 0 0
12:01 1027 30.33 856 25.28 18.1 64.6 37 3.5 38.3 0 0
12:02 1027 30.33 856 25.28 18.1 64.6 37 3.3 37.9 0 0
12:03 1027 30.33 856 25.28 18.1 64.7 35 2.7 36.8 0 0
12:04 1027 30.33 856 25.28 18.2 64.8 36 2.9 37.2 0 0
12:05 1027 30.33 856 25.28 18.1 64.6 38 3.7 38.7 0 0
12:06 1027 30.33 856 25.28 18.3 64.9 38 3.8 38.8 0 0
12:07 1027 30.33 856 25.28 18.5 65.4 37 3.9 38.9 0 0
12:08 1027 30.33 856 25.28 18.8 65.8 35 3 37.4 0 0
12:09 1027 30.33 856 25.28 18.7 65.6 35 3 37.5 0 0
12:10 1027 30.33 856 25.28 18.6 65.6 37 3.9 39.1 0 0
12:11 1027 30.33 856 25.28 18.6 65.5 36 3.5 38.3 0 0
12:12 1027 30.33 856 25.28 18.7 65.7 35 3.2 37.7 0 0
12:13 1027 30.33 856 25.28 18.7 65.6 35 3.2 37.8 0 0
12:14 1027 30.33 856 25.28 18.8 65.8 37 3.8 38.9 0 0
12:15 1027 30.33 856 25.28 18.9 66 37 4 39.2 0 0
12:16 1027 30.33 856 25.28 19 66.1 36 3.5 38.4 0 0
12:17 1027 30.33 856 25.28 19 66.1 35 3.1 37.6 0 0
12:18 1027 30.33 856 25.28 18.9 65.9 34 2.8 37.1 0 0
12:19 1027 30.33 856 25.28 18.6 65.5 36 3.5 38.3 0 0
12:20 1027 30.33 856 25.28 18.5 65.3 37 3.8 38.8 0 0
12:21 1027 30.33 856 25.28 18.4 65.1 38 3.8 38.9 0 0
12:22 1027 30.33 856 25.28 18.5 65.2 35 2.9 37.2 0 0
12:23 1027 30.33 856 25.28 18.4 65.2 36 3.4 38.1 0 0
12:24 1027 30.33 856 25.28 18.4 65.2 36 3.2 37.8 0 0
12:25 1027 30.33 856 25.28 18.6 65.5 36 3.2 37.8 0 0
12:26 1027 30.33 856 25.28 18.7 65.7 35 3 37.4 0 0
12:27 1027 30.33 856 25.28 18.8 65.8 35 3.3 37.9 0 0
12:28 1027 30.33 856 25.28 18.8 65.8 36 3.4 38.1 0 0
12:29 1027 30.33 856 25.28 18.8 65.8 35 3.2 37.8 0 0
12:30 1027 30.33 856 25.28 18.7 65.6 35 3.2 37.7 0 0
12:31 1027 30.33 856 25.28 18.6 65.6 34 2.8 37 0 0
12:32 1027 30.33 856 25.28 18.6 65.5 35 3.1 37.7 0 0
12:33 1027 30.33 856 25.28 18.6 65.4 36 3.3 37.9 0 0
12:34 1027 30.33 856 25.28 18.6 65.5 36 3.3 37.9 0 0
12:35 1027 30.33 856 25.28 18.9 66 36 3.6 38.5 0 0
12:36 1027 30.33 856 25.28 19 66.3 34 3.1 37.5 0 0
12:37 1027 30.33 856 25.28 19 66.1 37 3.9 39 0 0
12:38 1027 30.33 856 25.28 19 66.3 35 3.2 37.7 0 0
12:39 1027 30.33 856 25.28 19.2 66.6 35 3.4 38.1 0 0
12:40 1027 30.33 856 25.28 19.3 66.8 33 2.9 37.3 0 0
12:41 1027 30.33 856 25.28 19.3 66.8 33 2.6 36.7 0 0
12:42 1027 30.33 856 25.28 19.3 66.7 34 3 37.4 0 0
12:43 1027 30.33 856 25.28 19.4 66.8 34 3.2 37.8 0 0
12:44 1027 30.33 856 25.28 19.6 67.2 31 2 35.7 0 0
12:45 1027 30.33 856 25.28 19.6 67.2 31 2.1 35.7 0 0
12:46 1027 30.33 856 25.28 19.6 67.3 32 2.6 36.7 0 0
12:47 1027 30.33 856 25.28 19.6 67.2 32 2.5 36.5 0 0
12:48 1027 30.33 856 25.28 19.4 67 33 2.9 37.2 0 0
12:49 1027 30.33 856 25.28 19.5 67.1 31 2.1 35.8 0 0
12:50 1027 30.33 856 25.28 19.6 67.3 31 2.3 36.1 0 0
12:51 1027 30.33 856 25.28 19.6 67.2 30 1.6 34.9 0 0
12:52 1027 30.33 856 25.28 19.4 66.9 31 1.8 35.3 0 0
12:53 1027 30.33 856 25.28 19.3 66.8 30 1.5 34.7 0 0
12:54 1027 30.33 856 25.28 19.2 66.6 31 1.7 35 0 0
12:55 1027 30.33 856 25.28 19.3 66.7 32 2.2 36 0 0
12:56 1027 30.33 856 25.28 19.4 66.9 30 1.6 34.9 0 0
12:57 1027 30.33 856 25.28 19.3 66.8 32 2.4 36.3 0 0
12:58 1027 30.33 856 25.28 19.4 66.9 31 2.2 35.9 0 0
12:59 1027 30.33 856 25.28 19.5 67.1 30 1.5 34.8 0 0
13:00 1027 30.33 856 25.28 19.7 67.5 30 1.9 35.5 0 0
13:01 1027 30.33 856 25.28 19.9 67.7 29 1.5 34.6 0 0
13:02 1027 30.33 856 25.28 19.9 67.7 29 1.5 34.7 0 0
13:03 1027 30.33 856 25.28 19.7 67.4 30 1.8 35.2 0 0
13:04 1027 30.33 856 25.28 19.6 67.3 29 1.4 34.4 0 0
13:05 1027 30.33 856 25.28 19.6 67.3 27 0.1 32.2 0 0
13:06 1027 30.33 856 25.28 19.6 67.3 27 0.1 32.2 0 0
13:07 1027 30.33 856 25.28 19.7 67.4 28 0.9 33.6 0 0
13:08 1027 30.33 856 25.28 19.7 67.4 29 1.1 34.1 0 0
13:09 1027 30.33 856 25.28 19.7 67.5 28 0.9 33.7 0 0
13:10 1027 30.33 856 25.28 19.7 67.4 29 1.1 34 0 0
13:11 1027 30.33 856 25.28 19.6 67.3 28 1 33.7 0 0
13:12 1027 30.33 856 25.28 19.6 67.2 29 1.3 34.3 0 0
13:13 1027 30.33 856 25.28 19.9 67.7 25 -0.7 30.8 0 0
13:14 1027 30.33 856 25.28 19.9 67.8 26 -0.3 31.5 0 0
13:15 1027 30.33 856 25.28 19.9 67.7 26 0.1 32.2 0 0
13:16 1027 30.33 856 25.28 20.1 68.1 27 0.5 33 0 0
13:17 1027 30.33 856 25.28 20.3 68.5 25 -0.1 31.8 0 0
13:18 1027 30.33 856 25.28 20.2 68.3 28 1.1 34 0 0
13:19 1027 30.33 856 25.28 20.2 68.4 25 -0 32 0 0
13:20 1027 30.33 856 25.28 20.1 68.2 26 -0 32 0 0
13:21 1027 30.33 856 25.28 20 68 25 -0.4 31.3 0 0
13:22 1027 30.33 856 25.28 19.9 67.8 26 -0.2 31.7 0 0
13:23 1027 30.33 856 25.28 19.8 67.7 26 -0.1 31.8 0 0
13:24 1027 30.33 856 25.28 19.9 67.8 25 -0.6 30.9 0 0
13:25 1027 30.33 856 25.28 19.9 67.9 25 -0.4 31.3 0 0
13:26 1027 30.33 856 25.28 20 68.1 26 0 32.1 0 0
13:27 1026 30.3 856 25.28 20.1 68.2 25 -0.3 31.5 0 0
13:28 1027 30.33 856 25.28 20.1 68.1 25 -0.1 31.7 0 0
13:29 1026 30.3 856 25.28 20 68 26 -0.1 31.7 0 0
13:30 1026 30.3 856 25.28 19.9 67.8 26 -0.3 31.5 0 0
13:31 1026 30.3 856 25.28 19.8 67.7 27 0.7 33.2 0 0
13:32 1026 30.3 856 25.28 20 67.9 25 -0.4 31.4 0 0
13:33 1026 30.3 856 25.28 20 68 26 -0.2 31.7 0 0
13:34 1026 30.3 856 25.28 20.1 68.1 25 -0.3 31.5 0 0
13:35 1027 30.33 856 25.28 20.2 68.3 25 -0.2 31.6 0 0
13:36 1027 30.33 856 25.28 20.3 68.5 24 -0.8 30.6 0 0
13:37 1027 30.33 856 25.28 20.1 68.2 24 -0.7 30.7 0 0
13:38 1027 30.33 856 25.28 19.9 67.8 25 -0.8 30.6 0 0
13:39 1027 30.33 856 25.28 19.7 67.4 26 -0.1 31.9 0 0
13:40 1027 30.33 856 25.28 19.6 67.3 27 0.1 32.1 0 0
13:41 1026 30.3 856 25.28 19.8 67.6 26 0.1 32.2 0 0
13:42 1027 30.33 856 25.28 19.9 67.9 28 1.3 34.3 0 0
13:43 1027 30.33 856 25.28 20.1 68.2 25 -0.5 31.1 0 0
13:44 1027 30.33 856 25.28 20.1 68.1 26 -0 32 0 0
13:45 1027 30.33 856 25.28 20 67.9 26 0.2 32.4 0 0
13:46 1027 30.33 856 25.28 20 67.9 26 -0.2 31.6 0 0
13:47 1026 30.3 856 25.28 20.1 68.2 25 -0.3 31.4 0 0
13:48 1026 30.3 856 25.28 20.2 68.3 24 -0.8 30.6 0 0
13:49 1026 30.3 856 25.28 20.3 68.5 24 -0.6 30.9 0 0
13:50 1027 30.33 856 25.28 20.5 68.8 24 -0.4 31.2 0 0
13:51 1027 30.33 856 25.28 20.6 69 22 -1.5 29.3 0 0
13:52 1027 30.33 856 25.28 20.5 68.8 23 -1.2 29.8 0 0
13:53 1027 30.33 856 25.28 20.3 68.6 23 -1.2 29.8 0 0
13:54 1027 30.33 856 25.28 20.1 68.2 24 -1.2 29.9 0 0
13:55 1026 30.3 856 25.28 20 68 25 -0.6 31 0 0
13:56 1026 30.3 856 25.28 20.1 68.2 24 -1 30.2 0 0
13:57 1027 30.33 856 25.28 20.3 68.5 24 -0.9 30.3 0 0
13:58 1027 30.33 856 25.28 20.5 68.9 22 -1.6 29.1 0 0
13:59 1026 30.3 856 25.28 20.5 68.8 23 -1.5 29.3 0 0
14:00 1027 30.33 856 25.28 20.5 68.8 23 -1.2 29.8 0 0
14:01 1026 30.3 856 25.28 20.6 69 22 -1.6 29 0 0
14:02 1026 30.3 856 25.28 20.5 68.9 22 -1.9 28.6 0 0
14:03 1026 30.3 856 25.28 20.4 68.7 23 -1.4 29.4 0 0
14:04 1026 30.3 856 25.28 20.6 69 23 -1 30.2 0 0
14:05 1026 30.3 856 25.28 20.8 69.4 22 -1.4 29.4 0 0
14:06 1026 30.3 856 25.28 20.6 69.2 23 -0.9 30.3 0 0
14:07 1026 30.3 856 25.28 20.7 69.2 23 -1.3 29.7 0 0
14:08 1026 30.3 856 25.28 20.6 69.1 22 -1.9 28.5 0 0
14:09 1026 30.3 856 25.28 20.4 68.7 23 -1.1 30 0 0
14:10 1026 30.3 856 25.28 20.4 68.7 23 -1.3 29.6 0 0
14:11 1026 30.3 856 25.28 20.3 68.5 22 -1.8 28.7 0 0
14:12 1026 30.3 856 25.28 20.3 68.5 23 -1.5 29.3 0 0
14:13 1026 30.3 856 25.28 20.3 68.5 22 -1.8 28.7 0 0
14:14 1026 30.3 856 25.28 20.3 68.6 24 -1 30.2 0 0
14:15 1026 30.3 856 25.28 20.6 69.1 22 -1.9 28.6 0 0
14:16 1026 30.3 856 25.28 20.7 69.2 23 -1.3 29.7 0 0
14:17 1026 30.3 856 25.28 20.7 69.3 22 -1.6 29.1 0 0
14:18 1026 30.3 855 25.25 20.7 69.2 21 -2.1 28.2 0 0
14:19 1026 30.3 855 25.25 20.6 69 22 -1.8 28.8 0 0
14:20 1026 30.3 855 25.25 20.6 69.1 22 -1.5 29.2 0 0
14:21 1026 30.3 856 25.28 20.6 69 21 -2.2 28.1 0 0
14:22 1026 30.3 856 25.28 20.5 68.9 21 -2.1 28.2 0 0
14:23 1026 30.3 856 25.28 20.4 68.8 22 -2 28.4 0 0
14:24 1026 30.3 856 25.28 20.4 68.8 22 -1.5 29.3 0 0
14:25 1026 30.3 855 25.25 20.5 68.9 23 -1.2 29.9 0 0
14:26 1026 30.3 855 25.25 20.6 69 23 -1.2 29.8 0 0
14:27 1026 30.3 856 25.28 20.7 69.3 22 -1.7 28.9 0 0
14:28 1026 30.3 856 25.28 20.8 69.4 23 -1 30.2 0 0
14:29 1026 30.3 856 25.28 20.8 69.4 20 -2.6 27.3 0 0
14:30 1026 30.3 856 25.28 20.7 69.2 21 -2.4 27.7 0 0
14:31 1026 30.3 856 25.28 20.6 69 21 -2.2 28 0 0
14:32 1026 30.3 856 25.28 20.7 69.3 22 -1.3 29.6 0 0
14:33 1026 30.3 856 25.28 20.8 69.4 23 -0.7 30.7 0 0
14:34 1026 30.3 856 25.28 20.9 69.6 23 -1.1 30 0 0
14:35 1026 30.3 856 25.28 20.9 69.6 22 -1.4 29.5 0 0
14:36 1026 30.3 856 25.28 21 69.8 21 -1.8 28.8 0 0
14:37 1026 30.3 856 25.28 20.9 69.5 22 -1.2 29.9 0 0
14:38 1026 30.3 856 25.28 20.8 69.5 22 -1.5 29.2 0 0
14:39 1026 30.3 856 25.28 21 69.7 22 -1.2 29.9 0 0
14:40 1026 30.3 856 25.28 21 69.8 21 -1.7 29 0 0
14:41 1026 30.3 856 25.28 20.9 69.6 23 -1.1 30.1 0 0
14:42 1026 30.3 856 25.28 20.8 69.4 22 -1.3 29.6 0 0
14:43 1026 30.3 856 25.28 20.7 69.2 22 -1.4 29.4 0 0
14:44 1026 30.3 856 25.28 20.6 69.1 22 -1.4 29.4 0 0
14:45 1026 30.3 856 25.28 20.6 69.2 23 -0.8 30.5 0 0
14:46 1026 30.3 856 25.28 20.7 69.2 24 -0.4 31.2 0 0
14:47 1026 30.3 855 25.25 20.8 69.4 23 -1 30.2 0 0
14:48 1026 30.3 856 25.28 21 69.9 23 -0.8 30.5 0 0
14:49 1026 30.3 856 25.28 21.2 70.1 24 -0.2 31.7 0 0
14:50 1026 30.3 856 25.28 21.3 70.3 22 -1.1 30.1 0 0
14:51 1026 30.3 856 25.28 21.3 70.4 22 -1 30.2 0 0
14:52 1026 30.3 856 25.28 21.3 70.4 23 -0.6 31 0 0
14:53 1026 30.3 856 25.28 21.2 70.2 23 -0.6 30.9 0 0
14:54 1026 30.3 856 25.28 21.1 69.9 22 -1.2 29.9 0 0
14:55 1026 30.3 856 25.28 20.9 69.6 21 -1.9 28.6 0 0
14:56 1026 30.3 856 25.28 20.7 69.2 22 -1.4 29.5 0 0
14:57 1026 30.3 856 25.28 20.6 69.1 23 -1.3 29.6 0 0
14:58 1026 30.3 856 25.28 20.7 69.3 23 -1.2 29.8 0 0
14:59 1026 30.3 856 25.28 20.8 69.4 23 -1.1 30 0 0
15:00 1026 30.3 856 25.28 21 69.9 22 -1.4 29.5 0 0
15:01 1026 30.3 856 25.28 21.1 69.9 21 -2 28.4 0 0
15:02 1026 30.3 856 25.28 21 69.7 23 -0.9 30.4 0 0
15:03 1026 30.3 856 25.28 21 69.8 22 -1.4 29.6 0 0
15:04 1026 30.3 856 25.28 21 69.9 21 -1.6 29 0 0
15:05 1026 30.3 856 25.28 21 69.7 22 -1.3 29.7 0 0
15:06 1026 30.3 856 25.28 20.9 69.7 23 -1.1 30.1 0 0
15:07 1026 30.3 856 25.28 20.9 69.6 23 -1 30.2 0 0
15:08 1026 30.3 856 25.28 20.8 69.5 24 -0.6 30.9 0 0
15:09 1026 30.3 856 25.28 21 69.8 23 -0.9 30.5 0 0
15:10 1026 30.3 856 25.28 21.1 70 22 -1.3 29.7 0 0
15:11 1026 30.3 856 25.28 21.3 70.3 22 -0.9 30.4 0 0
15:12 1026 30.3 856 25.28 21.3 70.3 21 -1.4 29.4 0 0
15:13 1026 30.3 856 25.28 21.2 70.1 21 -1.5 29.2 0 0
15:14 1026 30.3 856 25.28 21 69.9 21 -2.2 28.1 0 0
15:15 1026 30.3 856 25.28 20.8 69.4 22 -1.5 29.3 0 0
15:16 1026 30.3 856 25.28 20.8 69.5 24 -0.1 31.8 0 0
15:17 1026 30.3 856 25.28 20.9 69.6 23 -0.8 30.6 0 0
15:18 1026 30.3 856 25.28 21 69.8 23 -0.6 30.8 0 0
15:19 1026 30.3 856 25.28 21 69.7 22 -1.4 29.5 0 0
15:20 1026 30.3 856 25.28 20.8 69.4 22 -1.4 29.4 0 0
15:21 1026 30.3 856 25.28 20.8 69.4 23 -1.1 30.1 0 0
15:22 1026 30.3 856 25.28 20.8 69.4 24 -0.5 31 0 0
15:23 1026 30.3 856 25.28 21 69.7 22 -1.2 29.8 0 0
15:24 1026 30.3 856 25.28 21 69.8 22 -1.2 29.8 0 0
15:25 1026 30.3 856 25.28 20.9 69.6 22 -1.2 29.8 0 0
15:26 1026 30.3 856 25.28 20.8 69.5 22 -1.4 29.6 0 0
15:27 1026 30.3 856 25.28 20.7 69.3 22 -1.3 29.6 0 0
15:28 1026 30.3 856 25.28 20.7 69.2 22 -1.5 29.2 0 0
15:29 1026 30.3 856 25.28 20.6 69.1 23 -1 30.2 0 0
15:30 1026 30.3 856 25.28 20.8 69.5 23 -1.1 29.9 0 0
15:31 1026 30.3 856 25.28 20.9 69.7 23 -1 30.1 0 0
15:32 1026 30.3 856 25.28 20.9 69.6 22 -1.3 29.7 0 0
15:33 1026 30.3 856 25.28 20.8 69.4 24 -0.6 31 0 0
15:34 1026 30.3 856 25.28 20.8 69.4 23 -1.2 29.9 0 0
15:35 1026 30.3 856 25.28 20.7 69.2 22 -1.6 29.1 0 0
15:36 1026 30.3 856 25.28 20.6 69.1 22 -1.7 29 0 0
15:37 1026 30.3 856 25.28 20.6 69.1 22 -1.5 29.3 0 0
15:38 1026 30.3 856 25.28 20.7 69.3 22 -1.4 29.5 0 0
15:39 1026 30.3 856 25.28 20.8 69.5 22 -1.4 29.5 0 0
15:40 1026 30.3 856 25.28 20.9 69.5 22 -1.3 29.6 0 0
15:41 1026 30.3 856 25.28 20.8 69.5 23 -1 30.2 0 0
15:42 1026 30.3 856 25.28 21 69.8 23 -0.9 30.4 0 0
15:43 1026 30.3 856 25.28 21.1 69.9 22 -1.1 30 0 0
15:44 1026 30.3 856 25.28 21.1 70 21 -1.6 29.1 0 0
15:45 1026 30.3 856 25.28 21.1 69.9 22 -1.1 30.1 0 0
15:46 1026 30.3 856 25.28 21 69.8 23 -0.8 30.6 0 0
15:47 1026 30.3 856 25.28 21 69.9 22 -1.2 29.8 0 0
15:48 1026 30.3 856 25.28 21 69.9 22 -1.5 29.4 0 0
15:49 1026 30.3 856 25.28 21 69.7 23 -0.8 30.6 0 0
15:50 1026 30.3 856 25.28 21.1 69.9 22 -1.5 29.2 0 0
15:51 1026 30.3 856 25.28 21 69.7 23 -1 30.1 0 0
15:52 1026 30.3 856 25.28 20.8 69.5 23 -1 30.1 0 0
15:53 1026 30.3 856 25.28 20.8 69.4 22 -1.3 29.7 0 0
15:54 1026 30.3 856 25.28 20.7 69.3 23 -0.8 30.6 0 0
15:55 1026 30.3 856 25.28 20.8 69.4 23 -1 30.3 0 0
15:56 1026 30.3 856 25.28 20.8 69.4 24 -0.6 30.9 0 0
15:57 1026 30.3 856 25.28 20.8 69.5 25 0.1 32.2 0 0
15:58 1026 30.3 856 25.28 21 69.9 23 -0.5 31.1 0 0
15:59 1026 30.3 856 25.28 21.2 70.2 23 -0.8 30.5 0 0
16:00 1026 30.3 856 25.28 21.3 70.3 23 -0.6 31 0 0
16:01 1026 30.3 856 25.28 21.3 70.3 22 -1.2 29.8 0 0
16:02 1026 30.3 856 25.28 21.1 69.9 23 -0.7 30.8 0 0
16:03 1026 30.3 856 25.28 21.1 69.9 23 -0.7 30.7 0 0
16:04 1026 30.3 855 25.25 21.1 70 22 -1 30.2 0 0
16:05 1026 30.3 855 25.25 21.1 70 22 -1.3 29.7 0 0
16:06 1026 30.3 855 25.25 21 69.9 22 -1.3 29.7 0 0
16:07 1026 30.3 855 25.25 21 69.8 23 -0.8 30.6 0 0
16:08 1026 30.3 855 25.25 21.2 70.2 22 -1.3 29.7 0 0
16:09 1026 30.3 856 25.28 21.2 70.2 23 -0.8 30.6 0 0
16:10 1026 30.3 855 25.25 21.2 70.2 21 -1.5 29.3 0 0
16:11 1026 30.3 855 25.25 21.2 70.1 21 -1.6 29.2 0 0
16:12 1026 30.3 855 25.25 21.2 70.1 22 -1.1 29.9 0 0
16:13 1026 30.3 855 25.25 21.3 70.3 21 -1.7 28.9 0 0
16:14 1026 30.3 855 25.25 21.1 70.1 23 -0.8 30.6 0 0
16:15 1026 30.3 855 25.25 21.1 70 23 -0.7 30.7 0 0
16:16 1026 30.3 855 25.25 21.1 70 23 -0.9 30.5 0 0
16:17 1026 30.3 855 25.25 21.2 70.1 21 -1.8 28.8 0 0
16:18 1026 30.3 855 25.25 21.1 69.9 22 -1.5 29.3 0 0
16:19 1026 30.3 855 25.25 21 69.9 21 -1.7 28.9 0 0
16:20 1026 30.3 855 25.25 21.1 69.9 22 -1.1 30.1 0 0
16:21 1026 30.3 855 25.25 21.1 70 23 -0.8 30.5 0 0
16:22 1026 30.3 855 25.25 21.1 70 21 -1.8 28.8 0 0
16:23 1026 30.3 855 25.25 21.1 69.9 23 -0.7 30.7 0 0
16:24 1026 30.3 855 25.25 21.1 70 22 -1.2 29.9 0 0
16:25 1026 30.3 855 25.25 21.1 70.1 22 -1.2 29.8 0 0
16:26 1026 30.3 855 25.25 21.1 70 22 -1 30.2 0 0
16:27 1026 30.3 855 25.25 21.1 69.9 23 -0.9 30.4 0 0
16:28 1026 30.3 855 25.25 21.1 70 23 -0.9 30.4 0 0
16:29 1026 30.3 855 25.25 21.2 70.1 21 -1.9 28.5 0 0
16:30 1026 30.3 855 25.25 21 69.7 22 -1.6 29.1 0 0
16:31 1026 30.3 855 25.25 20.9 69.7 23 -1 30.2 0 0
16:32 1026 30.3 855 25.25 21 69.8 22 -1.2 29.8 0 0
16:33 1026 30.3 855 25.25 21 69.8 22 -1.6 29.1 0 0
16:34 1026 30.3 855 25.25 21 69.7 21 -1.9 28.6 0 0
16:35 1026 30.3 855 25.25 20.9 69.6 21 -2.2 28 0 0
16:36 1026 30.3 855 25.25 20.9 69.5 23 -0.8 30.6 0 0
16:37 1026 30.3 855 25.25 21 69.8 23 -0.7 30.7 0 0
16:38 1026 30.3 855 25.25 21.2 70.2 20 -2.4 27.6 0 0
16:39 1026 30.3 855 25.25 21.2 70.1 21 -1.7 29 0 0
16:40 1026 30.3 855 25.25 21 69.8 22 -1.6 29.1 0 0
16:41 1026 30.3 855 25.25 20.8 69.5 22 -1.7 28.9 0 0
16:42 1026 30.3 855 25.25 20.8 69.4 21 -2.2 28 0 0
16:43 1026 30.3 855 25.25 20.7 69.3 21 -2.4 27.6 0 0
16:44 1026 30.3 855 25.25 20.6 69.1 21 -2.3 27.9 0 0
16:45 1026 30.3 855 25.25 20.5 69 23 -1.4 29.5 0 0
16:46 1026 30.3 855 25.25 20.5 68.9 22 -1.9 28.6 0 0
16:47 1026 30.3 855 25.25 20.5 69 22 -1.5 29.4 0 0
16:48 1026 30.3 855 25.25 20.7 69.3 23 -1.3 29.7 0 0
16:49 1026 30.3 855 25.25 20.8 69.4 21 -2.1 28.2 0 0
16:50 1026 30.3 855 25.25 20.9 69.6 22 -1.5 29.4 0 0
16:51 1026 30.3 855 25.25 20.9 69.6 23 -0.9 30.4 0 0
16:52 1026 30.3 855 25.25 20.9 69.7 21 -1.9 28.7 0 0
16:53 1026 30.3 855 25.25 20.9 69.6 21 -1.9 28.5 0 0
16:54 1026 30.3 855 25.25 20.8 69.5 22 -1.7 29 0 0
16:55 1026 30.3 855 25.25 20.7 69.2 23 -1.3 29.7 0 0
16:56 1026 30.3 855 25.25 20.6 69.1 21 -2.3 27.9 0 0
16:57 1026 30.3 855 25.25 20.6 69.1 23 -1.2 29.8 0 0
16:58 1026 30.3 855 25.25 20.5 68.9 23 -1.1 29.9 0 0
16:59 1026 30.3 855 25.25 20.4 68.7 23 -1.4 29.5 0 0
17:00 1026 30.3 855 25.25 20.4 68.7 22 -2.2 28.1 0 0
17:01 1026 30.3 855 25.25 20.4 68.7 22 -2.2 28.1 0 0
17:02 1026 30.3 855 25.25 20.4 68.8 21 -2.3 27.8 0 0
17:03 1026 30.3 855 25.25 20.5 68.8 21 -2.4 27.8 0 0
17:04 1026 30.3 855 25.25 20.6 69.1 22 -1.5 29.2 0 0
17:05 1026 30.3 855 25.25 20.7 69.3 22 -1.5 29.4 0 0
17:06 1026 30.3 855 25.25 20.8 69.4 22 -1.7 28.9 0 0
17:07 1026 30.3 855 25.25 20.9 69.7 20 -2.6 27.4 0 0
17:08 1026 30.3 855 25.25 20.9 69.7 22 -1.4 29.4 0 0
17:09 1026 30.3 855 25.25 20.9 69.6 21 -1.8 28.8 0 0
17:10 1026 30.3 855 25.25 20.9 69.6 21 -1.8 28.8 0 0
17:11 1026 30.3 855 25.25 20.8 69.4 22 -1.6 29.1 0 0
17:12 1026 30.3 855 25.25 20.8 69.4 22 -1.6 29.2 0 0
17:13 1026 30.3 855 25.25 20.7 69.3 22 -1.4 29.5 0 0
17:14 1026 30.3 855 25.25 20.8 69.4 21 -2 28.4 0 0
17:15 1026 30.3 855 25.25 20.8 69.5 21 -2.1 28.3 0 0
17:16 1026 30.3 855 25.25 20.8 69.5 21 -2.2 28.1 0 0
17:17 1026 30.3 855 25.25 20.8 69.4 21 -1.9 28.6 0 0
17:18 1026 30.3 855 25.25 20.7 69.3 22 -1.9 28.6 0 0
17:19 1026 30.3 855 25.25 20.6 69.1 22 -1.4 29.5 0 0
17:20 1026 30.3 855 25.25 20.7 69.2 21 -2 28.3 0 0
17:21 1026 30.3 855 25.25 20.6 69 22 -1.8 28.8 0 0
17:22 1026 30.3 855 25.25 20.6 69 23 -1.3 29.6 0 0
17:23 1026 30.3 855 25.25 20.6 69.2 22 -1.7 29 0 0
17:24 1026 30.3 855 25.25 20.6 69.2 20 -2.8 27 0 0
17:25 1026 30.3 855 25.25 20.6 69.1 22 -1.6 29 0 0
17:26 1026 30.3 855 25.25 20.7 69.2 21 -2.2 28 0 0
17:27 1026 30.3 855 25.25 20.7 69.2 23 -1.2 29.8 0 0
17:28 1026 30.3 855 25.25 20.7 69.2 22 -1.8 28.8 0 0
17:29 1026 30.3 855 25.25 20.7 69.3 21 -2.3 27.9 0 0
17:30 1026 30.3 855 25.25 20.7 69.2 21 -2.5 27.4 0 0
17:31 1026 30.3 855 25.25 20.7 69.2 20 -2.6 27.2 0 0
17:32 1026 30.3 855 25.25 20.6 69.1 21 -2.1 28.3 0 0
17:33 1026 30.3 855 25.25 20.7 69.2 22 -1.8 28.8 0 0
17:34 1026 30.3 855 25.25 20.7 69.2 22 -1.7 28.9 0 0
17:35 1026 30.3 855 25.25 20.7 69.2 22 -1.9 28.6 0 0
17:36 1026 30.3 855 25.25 20.6 69.1 22 -1.8 28.8 0 0
17:37 1026 30.3 855 25.25 20.6 69.1 20 -2.6 27.3 0 0
17:38 1026 30.3 855 25.25 20.6 69.1 21 -2.1 28.2 0 0
17:39 1026 30.3 855 25.25 20.6 69 20 -2.7 27.1 0 0
17:40 1026 30.3 855 25.25 20.5 69 22 -2 28.4 0 0
17:41 1026 30.3 855 25.25 20.5 68.9 21 -2.7 27.1 0 0
17:42 1026 30.3 855 25.25 20.5 68.9 21 -2.7 27.1 0 0
17:43 1026 30.3 855 25.25 20.4 68.8 21 -2.5 27.5 0 0
17:44 1026 30.3 855 25.25 20.4 68.8 20 -2.8 27 0 0
17:45 1026 30.3 855 25.25 20.4 68.7 21 -2.8 27 0 0
17:46 1026 30.3 855 25.25 20.4 68.7 21 -2.7 27.2 0 0
17:47 1026 30.3 855 25.25 20.4 68.6 21 -2.8 27 0 0
17:48 1026 30.3 855 25.25 20.3 68.6 20 -3.3 26 0 0
17:49 1026 30.3 855 25.25 20.3 68.6 22 -2.1 28.1 0 0
17:50 1026 30.3 855 25.25 20.3 68.6 21 -2.7 27.2 0 0
17:51 1026 30.3 855 25.25 20.2 68.4 21 -2.8 27 0 0
17:52 1026 30.3 855 25.25 20.1 68.2 20 -3.4 26 0 0
17:53 1026 30.3 855 25.25 20.1 68.1 21 -3 26.5 0 0
17:54 1026 30.3 855 25.25 19.9 67.9 22 -2.3 27.8 0 0
17:55 1026 30.3 855 25.25 19.9 67.8 23 -1.8 28.8 0 0
17:56 1026 30.3 856 25.28 19.8 67.6 22 -2.3 27.8 0 0
17:57 1026 30.3 856 25.28 19.6 67.3 22 -2.5 27.6 0 0
17:58 1026 30.3 856 25.28 19.6 67.2 22 -2.7 27.1 0 0
17:59 1026 30.3 856 25.28 19.5 67.1 23 -2.3 27.9 0 0
18:00 1026 30.3 856 25.28 19.4 67 22 -2.4 27.7 0 0
18:01 1026 30.3 856 25.28 19.4 67 22 -2.6 27.3 0 0
18:02 1026 30.3 856 25.28 19.4 67 22 -2.5 27.5 0 0
18:03 1026 30.3 856 25.28 19.4 67 22 -2.4 27.6 0 0
18:04 1026 30.3 856 25.28 19.3 66.8 23 -2.1 28.3 0 0
18:05 1026 30.3 856 25.28 19.2 66.6 23 -2 28.4 0 0
18:06 1026 30.3 856 25.28 19.1 66.3 22 -2.7 27.1 0 0
18:07 1026 30.3 856 25.28 19.1 66.3 23 -2.3 27.8 0 0
18:08 1026 30.3 856 25.28 19 66.2 23 -2.5 27.4 0 0
18:09 1026 30.3 856 25.28 19 66.2 23 -2.2 28 0 0
18:10 1026 30.3 856 25.28 18.9 66 24 -2.2 28 0 0
18:11 1026 30.3 856 25.28 18.8 65.9 24 -1.9 28.6 0 0
18:12 1026 30.3 856 25.28 18.7 65.6 24 -1.9 28.6 0 0
18:13 1026 30.3 856 25.28 18.6 65.5 24 -2 28.4 0 0
18:14 1026 30.3 856 25.28 18.5 65.3 24 -2.2 28.1 0 0
18:15 1026 30.3 856 25.28 18.4 65.1 24 -2.3 27.8 0 0
18:16 1026 30.3 856 25.28 18.3 65 25 -2 28.4 0 0
18:17 1026 30.3 856 25.28 18.3 64.9 24 -2.3 27.9 0 0
18:18 1027 30.33 856 25.28 18.3 64.9 25 -2.1 28.1 0 0
18:19 1027 30.33 856 25.28 18.3 65 24 -2.2 28 0 0
18:20 1027 30.33 856 25.28 18.3 64.9 25 -2 28.4 0 0
18:21 1027 30.33 856 25.28 18.2 64.8 25 -1.8 28.8 0 0
18:22 1026 30.3 856 25.28 18.1 64.6 25 -1.8 28.7 0 0
18:23 1026 30.3 856 25.28 18.1 64.5 26 -1.8 28.7 0 0
18:24 1027 30.33 856 25.28 18 64.4 25 -1.9 28.5 0 0
18:25 1027 30.33 856 25.28 17.9 64.3 26 -1.8 28.7 0 0
18:26 1027 30.33 856 25.28 17.9 64.3 26 -1.8 28.8 0 0
18:27 1027 30.33 856 25.28 17.8 64.1 26 -1.8 28.7 0 0
18:28 1027 30.33 856 25.28 17.8 64 26 -1.7 28.9 0 0
18:29 1027 30.33 856 25.28 17.7 63.8 26 -1.9 28.6 0 0
18:30 1027 30.33 856 25.28 17.7 63.8 27 -1.7 29 0 0
18:31 1027 30.33 856 25.28 17.6 63.7 26 -1.9 28.6 0 0
18:32 1027 30.33 856 25.28 17.6 63.7 26 -1.8 28.7 0 0
18:33 1027 30.33 856 25.28 17.6 63.8 26 -1.8 28.7 0 0
18:34 1027 30.33 856 25.28 17.7 63.8 27 -1.6 29.1 0 0
18:35 1027 30.33 856 25.28 17.7 63.9 27 -1.6 29.1 0 0
18:36 1027 30.33 856 25.28 17.7 63.9 27 -1.4 29.4 0 0
18:37 1027 30.33 856 25.28 17.6 63.7 27 -1.4 29.5 0 0
18:38 1027 30.33 856 25.28 17.6 63.6 27 -1.4 29.5 0 0
18:39 1027 30.33 856 25.28 17.5 63.4 28 -1.3 29.6 0 0
18:40 1027 30.33 856 25.28 17.4 63.3 28 -1.4 29.5 0 0
18:41 1027 30.33 856 25.28 17.4 63.2 28 -1.4 29.5 0 0
18:42 1027 30.33 856 25.28 17.3 63.2 28 -1.3 29.6 0 0
18:43 1027 30.33 856 25.28 17.2 62.9 28 -1.3 29.6 0 0
18:44 1027 30.33 856 25.28 17.1 62.8 28 -1.2 29.8 0 0
18:45 1027 30.33 856 25.28 17 62.7 29 -1.2 29.8 0 0
18:46 1027 30.33 856 25.28 16.9 62.5 29 -1.3 29.6 0 0
18:47 1027 30.33 856 25.28 16.8 62.3 29 -1.3 29.6 0 0
18:48 1027 30.33 856 25.28 16.8 62.2 29 -1.5 29.4 0 0
18:49 1027 30.33 856 25.28 16.8 62.3 29 -1.4 29.5 0 0
18:50 1027 30.33 856 25.28 16.8 62.3 28 -1.4 29.4 0 0
18:51 1027 30.33 856 25.28 16.8 62.3 28 -1.5 29.2 0 0
18:52 1027 30.33 856 25.28 16.8 62.2 28 -1.6 29.1 0 0
18:53 1027 30.33 856 25.28 16.8 62.3 28 -1.5 29.3 0 0
18:54 1027 30.33 856 25.28 16.8 62.3 28 -1.5 29.2 0 0
18:55 1027 30.33 856 25.28 16.8 62.3 28 -1.6 29.1 0 0
18:56 1027 30.33 856 25.28 16.8 62.3 28 -1.5 29.2 0 0
18:57 1027 30.33 856 25.28 16.8 62.2 28 -1.5 29.2 0 0
18:58 1027 30.33 856 25.28 16.7 62 28 -1.7 28.9 0 0
18:59 1027 30.33 856 25.28 16.6 61.8 28 -1.7 28.9 0 0
19:00 1027 30.33 856 25.28 16.6 61.8 29 -1.6 29.2 0 0
19:01 1027 30.33 856 25.28 16.5 61.7 29 -1.5 29.2 0 0
19:02 1027 30.33 856 25.28 16.4 61.6 29 -1.7 29 0 0
19:03 1027 30.33 856 25.28 16.4 61.4 29 -1.5 29.4 0 0
19:04 1027 30.33 856 25.28 16.3 61.3 29 -1.6 29.2 0 0
19:05 1027 30.33 856 25.28 16.3 61.3 29 -1.7 28.9 0 0
19:06 1027 30.33 856 25.28 16.3 61.3 29 -1.8 28.7 0 0
19:07 1027 30.33 856 25.28 16.5 61.6 28 -1.8 28.8 0 0
19:08 1027 30.33 856 25.28 16.7 62 28 -1.7 28.9 0 0
19:09 1027 30.33 856 25.28 16.8 62.2 28 -1.7 29 0 0
19:10 1027 30.33 856 25.28 16.8 62.3 28 -1.6 29.2 0 0
19:11 1027 30.33 856 25.28 16.8 62.3 29 -1.4 29.5 0 0
19:12 1027 30.33 856 25.28 16.6 62 29 -1.3 29.7 0 0
19:13 1027 30.33 856 25.28 16.4 61.5 29 -1.6 29.1 0 0
19:14 1027 30.33 856 25.28 16.4 61.6 29 -1.6 29.2 0 0
19:15 1027 30.33 856 25.28 16.4 61.5 29 -1.5 29.2 0 0
19:16 1027 30.33 856 25.28 16.2 61.2 29 -1.5 29.3 0 0
19:17 1027 30.33 856 25.28 16.2 61.1 30 -1.5 29.3 0 0
19:18 1027 30.33 856 25.28 16.1 61 30 -1.4 29.4 0 0
19:19 1027 30.33 856 25.28 16 60.8 30 -1.4 29.4 0 0
19:20 1027 30.33 856 25.28 15.9 60.6 30 -1.6 29.2 0 0
19:21 1027 30.33 856 25.28 15.9 60.7 30 -1.7 29 0 0
19:22 1027 30.33 856 25.28 16 60.7 31 -1.2 29.9 0 0
19:23 1027 30.33 856 25.28 15.7 60.2 32 -1.1 30.1 0 0
19:24 1027 30.33 856 25.28 15.3 59.6 31 -1.5 29.3 0 0
19:25 1027 30.33 856 25.28 15.2 59.4 32 -1.5 29.4 0 0
19:26 1027 30.33 856 25.28 15.3 59.5 31 -1.5 29.3 0 0
19:27 1027 30.33 856 25.28 15.2 59.3 33 -1 30.3 0 0
19:28 1027 30.33 856 25.28 14.8 58.7 33 -1.1 30.1 0 0
19:29 1027 30.33 856 25.28 14.5 58.2 33 -1.4 29.5 0 0
19:30 1027 30.33 856 25.28 14.6 58.2 33 -1.6 29.1 0 0
19:31 1027 30.33 856 25.28 14.9 58.7 32 -1.7 29 0 0
19:32 1027 30.33 856 25.28 15.1 59.3 31 -1.7 29 0 0
19:33 1027 30.33 856 25.28 15.4 59.7 31 -1.7 29 0 0
19:34 1027 30.33 856 25.28 15.5 59.8 31 -1.4 29.5 0 0
19:35 1027 30.33 856 25.28 15.4 59.7 31 -1.5 29.3 0 0
19:36 1027 30.33 856 25.28 15.3 59.6 32 -1.3 29.7 0 0
19:37 1027 30.33 856 25.28 15.3 59.5 31 -1.6 29 0 0
19:38 1027 30.33 856 25.28 15.4 59.7 30 -1.8 28.8 0 0
19:39 1027 30.33 856 25.28 15.7 60.3 30 -1.7 28.9 0 0
19:40 1027 30.33 856 25.28 16 60.8 30 -1.5 29.3 0 0
19:41 1027 30.33 856 25.28 15.9 60.6 31 -1.3 29.7 0 0
19:42 1027 30.33 856 25.28 15.7 60.2 31 -1.2 29.8 0 0
19:43 1027 30.33 856 25.28 15.4 59.7 32 -1.2 29.8 0 0
19:44 1027 30.33 856 25.28 15.3 59.5 31 -1.4 29.4 0 0
19:45 1027 30.33 857 25.31 15.2 59.3 32 -1.1 30 0 0
19:46 1027 30.33 857 25.31 15 59 33 -1.2 29.8 0 0
19:47 1027 30.33 857 25.31 15 58.9 33 -1.3 29.7 0 0
19:48 1027 30.33 857 25.31 14.9 58.9 33 -1 30.2 0 0
19:49 1027 30.33 857 25.31 14.6 58.3 34 -0.9 30.5 0 0
19:50 1027 30.33 857 25.31 14.2 57.5 37 -0.2 31.7 0 0
19:51 1027 30.33 857 25.31 13.4 56.1 41 0.3 32.6 0 0
19:52 1027 30.33 857 25.31 12.4 54.4 44 0.5 32.8 0 0
19:53 1027 30.33 857 25.31 11.6 52.9 46 0.5 32.9 0 0
19:54 1027 30.33 857 25.31 11 51.8 48 0.6 33 0 0
19:55 1027 30.33 857 25.31 10.4 50.7 51 0.7 33.2 0 0
19:56 1027 30.33 857 25.31 9.9 49.8 53 0.8 33.4 0 0
19:57 1027 30.33 857 25.31 9.4 49 55 0.8 33.4 0 0
19:58 1027 30.33 857 25.31 9 48.2 57 0.9 33.6 0 0
19:59 1027 30.33 857 25.31 8.4 47.2 57 0.5 32.9 0 0
20:00 1027 30.33 857 25.31 7.9 46.2 60 0.7 33.2 0 0
20:01 1028 30.36 857 25.31 7.5 45.4 62 0.7 33.3 0 0
20:02 1028 30.36 857 25.31 7.2 44.9 63 0.6 33.1 0 0
20:03 1028 30.36 857 25.31 7.1 44.8 63 0.5 32.9 0 0
20:04 1028 30.36 857 25.31 7.2 44.9 62 0.4 32.7 0 0
20:05 1028 30.36 857 25.31 7.2 45 61 0.2 32.3 0 0
20:06 1028 30.36 857 25.31 7.3 45.1 60 0 32.1 0 0
20:07 1028 30.36 857 25.31 7.3 45.1 61 0.1 32.3 0 0
20:08 1028 30.36 857 25.31 7.1 44.9 61 0.1 32.1 0 0
20:09 1028 30.36 857 25.31 7.2 44.9 60 0 32.1 0 0
20:10 1028 30.36 857 25.31 7.2 44.9 61 0 32.1 0 0
20:11 1028 30.36 857 25.31 7.2 44.9 60 0 32.1 0 0
20:12 1028 30.36 857 25.31 7.2 44.9 60 0.1 32.1 0 0
20:13 1028 30.36 857 25.31 7.1 44.8 60 -0.1 31.8 0 0
20:14 1028 30.36 857 25.31 7.1 44.8 60 -0.1 31.8 0 0
20:15 1028 30.36 857 25.31 7.1 44.9 61 0.1 32.1 0 0
20:16 1028 30.36 857 25.31 7.2 44.9 60 0.1 32.1 0 0
20:17 1028 30.36 857 25.31 7.2 45 60 0.1 32.2 0 0
20:18 1028 30.36 857 25.31 7.1 44.9 61 0.2 32.4 0 0
20:19 1028 30.36 857 25.31 7.2 44.9 61 0.3 32.5 0 0
20:20 1028 30.36 857 25.31 7.3 45.1 61 0.3 32.5 0 0
20:21 1028 30.36 857 25.31 7.4 45.3 61 0.3 32.6 0 0
20:22 1028 30.36 857 25.31 7.6 45.6 60 0.2 32.4 0 0
20:23 1028 30.36 857 25.31 7.8 46 59 0.3 32.5 0 0
20:24 1028 30.36 857 25.31 8 46.4 58 0.3 32.6 0 0
20:25 1028 30.36 857 25.31 8.2 46.7 57 0.3 32.5 0 0
20:26 1028 30.36 857 25.31 8.3 46.9 57 0.3 32.5 0 0
20:27 1028 30.36 857 25.31 8.4 47.1 57 0.3 32.6 0 0
20:28 1028 30.36 857 25.31 8.5 47.2 57 0.4 32.7 0 0
20:29 1028 30.36 857 25.31 8.5 47.2 57 0.4 32.7 0 0
20:30 1028 30.36 857 25.31 8.4 47.1 57 0.4 32.8 0 0
20:31 1028 30.36 857 25.31 8.4 47.1 57 0.4 32.8 0 0
20:32 1028 30.36 857 25.31 8.3 46.9 57 0.4 32.6 0 0
20:33 1028 30.36 857 25.31 8.2 46.8 57 0.3 32.5 0 0
20:34 1028 30.36 857 25.31 8.3 46.9 57 0.3 32.6 0 0
20:35 1028 30.36 857 25.31 8.3 46.9 57 0.3 32.5 0 0
20:36 1028 30.36 857 25.31 8.3 46.9 57 0.3 32.6 0 0
20:37 1028 30.36 857 25.31 8.2 46.8 58 0.4 32.7 0 0
20:38 1028 30.36 857 25.31 8.2 46.7 58 0.3 32.6 0 0
20:39 1028 30.36 857 25.31 8.1 46.6 58 0.3 32.6 0 0
20:40 1028 30.36 857 25.31 8.1 46.5 58 0.4 32.7 0 0
20:41 1028 30.36 857 25.31 8.1 46.6 58 0.4 32.7 0 0
20:42 1028 30.36 857 25.31 8.1 46.5 58 0.4 32.7 0 0
20:43 1028 30.36 857 25.31 8 46.4 58 0.4 32.7 0 0
20:44 1028 30.36 857 25.31 8 46.3 59 0.5 32.9 0 0
20:45 1028 30.36 857 25.31 7.9 46.2 59 0.4 32.8 0 0
20:46 1028 30.36 857 25.31 7.8 46.1 59 0.4 32.7 0 0
20:47 1028 30.36 857 25.31 7.8 46 59 0.3 32.6 0 0
20:48 1028 30.36 857 25.31 7.9 46.2 59 0.3 32.6 0 0
20:49 1028 30.36 857 25.31 7.9 46.2 59 0.3 32.6 0 0
20:50 1028 30.36 857 25.31 7.9 46.2 59 0.4 32.7 0 0
20:51 1028 30.36 857 25.31 7.9 46.2 59 0.4 32.7 0 0
20:52 1028 30.36 857 25.31 7.9 46.2 59 0.4 32.7 0 0
20:53 1028 30.36 857 25.31 7.9 46.1 59 0.4 32.8 0 0
20:54 1028 30.36 857 25.31 7.7 45.9 60 0.4 32.8 0 0
20:55 1028 30.36 857 25.31 7.6 45.6 60 0.4 32.8 0 0
20:56 1028 30.36 857 25.31 7.5 45.4 61 0.4 32.8 0 0
20:57 1028 30.36 857 25.31 7.4 45.4 61 0.5 32.9 0 0
20:58 1028 30.36 857 25.31 7.4 45.4 61 0.5 32.9 0 0
20:59 1028 30.36 857 25.31 7.4 45.4 62 0.5 33 0 0
21:00 1028 30.36 857 25.31 7.3 45.2 62 0.5 33 0 0
21:01 1028 30.36 857 25.31 7.3 45.1 62 0.4 32.7 0 0
21:02 1028 30.36 857 25.31 7.3 45.1 61 0.4 32.6 0 0
21:03 1028 30.36 857 25.31 7.3 45.1 61 0.4 32.7 0 0
21:04 1028 30.36 857 25.31 7.2 44.9 62 0.4 32.8 0 0
21:05 1028 30.36 857 25.31 7.1 44.7 63 0.4 32.8 0 0
21:06 1028 30.36 857 25.31 7 44.7 63 0.4 32.7 0 0
21:07 1028 30.36 857 25.31 7.1 44.8 62 0.3 32.6 0 0
21:08 1028 30.36 857 25.31 7.2 45 62 0.4 32.7 0 0
21:09 1028 30.36 857 25.31 7.2 44.9 62 0.4 32.8 0 0
21:10 1028 30.36 857 25.31 7.1 44.7 62 0.4 32.6 0 0
21:11 1028 30.36 857 25.31 7 44.7 62 0.4 32.6 0 0
21:12 1028 30.36 857 25.31 7 44.5 63 0.3 32.6 0 0
21:13 1028 30.36 857 25.31 6.9 44.4 63 0.4 32.7 0 0
21:14 1028 30.36 857 25.31 6.7 44.1 63 0.3 32.5 0 0
21:15 1028 30.36 858 25.34 6.7 44.1 63 0.3 32.5 0 0
21:16 1028 30.36 858 25.34 6.8 44.2 63 0.2 32.4 0 0
21:17 1028 30.36 858 25.34 6.8 44.3 62 0.2 32.3 0 0
21:18 1028 30.36 858 25.34 7 44.6 62 0.1 32.2 0 0
21:19 1028 30.36 858 25.34 7.2 44.9 61 0.2 32.3 0 0
21:20 1028 30.36 858 25.34 7.3 45.1 61 0.3 32.5 0 0
21:21 1028 30.36 858 25.34 7.3 45.1 61 0.2 32.4 0 0
21:22 1028 30.36 858 25.34 7.4 45.2 60 0.2 32.4 0 0
21:23 1028 30.36 858 25.34 7.4 45.4 60 0.2 32.3 0 0
21:24 1028 30.36 858 25.34 7.5 45.5 60 0.2 32.3 0 0
21:25 1028 30.36 858 25.34 7.6 45.7 59 0.2 32.4 0 0
21:26 1028 30.36 858 25.34 7.7 45.8 59 0.2 32.4 0 0
21:27 1028 30.36 858 25.34 7.7 45.8 58 0.1 32.2 0 0
21:28 1028 30.36 858 25.34 7.8 46.1 58 0.2 32.4 0 0
21:29 1028 30.36 858 25.34 7.9 46.1 58 0.2 32.4 0 0
21:30 1028 30.36 858 25.34 7.8 46.1 59 0.2 32.4 0 0
21:31 1028 30.36 858 25.34 7.8 46.1 58 0.1 32.3 0 0
21:32 1028 30.36 858 25.34 8 46.3 58 0.2 32.4 0 0
21:33 1028 30.36 858 25.34 8 46.4 58 0.3 32.5 0 0
21:34 1028 30.36 858 25.34 7.9 46.3 59 0.3 32.6 0 0
21:35 1028 30.36 858 25.34 7.8 46 59 0.4 32.7 0 0
21:36 1028 30.36 858 25.34 7.6 45.6 60 0.4 32.7 0 0
21:37 1028 30.36 858 25.34 7.4 45.3 61 0.4 32.8 0 0
21:38 1028 30.36 858 25.34 7.2 45 62 0.4 32.8 0 0
21:39 1028 30.36 858 25.34 7 44.6 62 0.3 32.5 0 0
21:40 1028 30.36 858 25.34 6.8 44.2 63 0.2 32.4 0 0
21:41 1028 30.36 858 25.34 6.5 43.7 64 0.3 32.5 0 0
21:42 1028 30.36 858 25.34 6.3 43.3 65 0.2 32.4 0 0
21:43 1028 30.36 858 25.34 6.1 43 66 0.2 32.3 0 0
21:44 1028 30.36 858 25.34 6.1 42.9 66 0.2 32.3 0 0
21:45 1029 30.39 858 25.34 6 42.8 65 -0 31.9 0 0
21:46 1029 30.39 858 25.34 5.9 42.6 65 -0.1 31.8 0 0
21:47 1029 30.39 858 25.34 6.3 43.3 62 -0.4 31.3 0 0
21:48 1029 30.39 858 25.34 6.8 44.2 60 -0.5 31 0 0
21:49 1029 30.39 858 25.34 7.1 44.7 58 -0.7 30.7 0 0
21:50 1029 30.39 858 25.34 7.1 44.7 57 -0.8 30.6 0 0
21:51 1029 30.39 858 25.34 6.9 44.5 57 -0.9 30.3 0 0
21:52 1029 30.39 858 25.34 6.8 44.3 57 -1.1 30.1 0 0
21:53 1029 30.39 858 25.34 6.8 44.3 57 -1.1 30 0 0
21:54 1029 30.39 858 25.34 6.9 44.4 57 -1.1 30 0 0
21:55 1029 30.39 858 25.34 6.9 44.3 56 -1.2 29.9 0 0
21:56 1029 30.39 858 25.34 6.9 44.3 56 -1.2 29.9 0 0
21:57 1029 30.39 858 25.34 6.9 44.4 57 -1.1 30 0 0
21:58 1029 30.39 858 25.34 6.9 44.4 56 -1.2 29.8 0 0
21:59 1029 30.39 858 25.34 7 44.7 56 -1.2 29.9 0 0
22:00 1029 30.39 858 25.34 7.2 44.9 56 -0.9 30.3 0 0
22:01 1029 30.39 858 25.34 7.3 45.2 56 -0.8 30.6 0 0
22:02 1029 30.39 858 25.34 7.4 45.4 56 -0.8 30.6 0 0
22:03 1029 30.39 858 25.34 7.5 45.5 56 -0.8 30.6 0 0
22:04 1029 30.39 858 25.34 7.5 45.4 56 -0.7 30.8 0 0
22:05 1029 30.39 858 25.34 7.5 45.4 56 -0.7 30.7 0 0
22:06 1029 30.39 858 25.34 7.6 45.7 56 -0.7 30.8 0 0
22:07 1029 30.39 858 25.34 7.8 46 55 -0.7 30.8 0 0
22:08 1029 30.39 858 25.34 8.1 46.5 54 -0.7 30.8 0 0
22:09 1029 30.39 858 25.34 8.5 47.2 53 -0.6 30.9 0 0
22:10 1029 30.39 858 25.34 8.7 47.7 52 -0.6 30.8 0 0
22:11 1029 30.39 858 25.34 9 48.2 51 -0.6 30.9 0 0
22:12 1029 30.39 858 25.34 9.3 48.7 50 -0.5 31.1 0 0
22:13 1029 30.39 858 25.34 9.4 48.9 50 -0.6 31 0 0
22:14 1029 30.39 858 25.34 9.4 48.9 49 -0.6 30.8 0 0
22:15 1029 30.39 858 25.34 9.4 49 49 -0.6 30.9 0 0
22:16 1029 30.39 858 25.34 9.4 49 49 -0.6 30.9 0 0
22:17 1029 30.39 858 25.34 9.4 48.8 50 -0.5 31.1 0 0
22:18 1029 30.39 858 25.34 9.2 48.6 50 -0.5 31.1 0 0
22:19 1029 30.39 858 25.34 9.1 48.5 51 -0.5 31.1 0 0
22:20 1029 30.39 858 25.34 9 48.2 52 -0.4 31.4 0 0
22:21 1029 30.39 858 25.34 8.8 47.9 52 -0.4 31.3 0 0
22:22 1029 30.39 858 25.34 8.7 47.6 52 -0.6 31 0 0
22:23 1029 30.39 858 25.34 8.7 47.6 52 -0.5 31.1 0 0
22:24 1029 30.39 858 25.34 8.7 47.6 53 -0.4 31.3 0 0
22:25 1029 30.39 858 25.34 8.5 47.3 53 -0.4 31.3 0 0
22:26 1029 30.39 858 25.34 8.3 46.9 55 -0.3 31.4 0 0
22:27 1029 30.39 858 25.34 8 46.3 56 -0.3 31.4 0 0
22:28 1029 30.39 858 25.34 7.7 45.9 57 -0.3 31.5 0 0
22:29 1029 30.39 858 25.34 7.5 45.5 57 -0.4 31.3 0 0
22:30 1029 30.39 858 25.34 7.4 45.4 57 -0.6 31 0 0
22:31 1029 30.39 858 25.34 7.6 45.6 56 -0.6 31 0 0
22:32 1029 30.39 858 25.34 7.7 45.9 55 -0.7 30.8 0 0
22:33 1029 30.39 858 25.34 8 46.4 54 -0.7 30.8 0 0
22:34 1029 30.39 858 25.34 8.3 46.9 53 -0.7 30.8 0 0
22:35 1029 30.39 858 25.34 8.4 47.2 52 -0.7 30.7 0 0
22:36 1029 30.39 858 25.34 8.7 47.7 51 -0.7 30.7 0 0
22:37 1029 30.39 858 25.34 9 48.1 51 -0.6 30.9 0 0
22:38 1029 30.39 858 25.34 9.1 48.5 50 -0.7 30.7 0 0
22:39 1029 30.39 858 25.34 9.3 48.8 49 -0.7 30.7 0 0
22:40 1029 30.39 858 25.34 9.4 48.9 49 -0.6 30.8 0 0
22:41 1029 30.39 858 25.34 9.2 48.6 50 -0.7 30.8 0 0
22:42 1029 30.39 858 25.34 9 48.1 51 -0.7 30.7 0 0
22:43 1029 30.39 858 25.34 8.7 47.7 51 -0.7 30.7 0 0
22:44 1029 30.39 858 25.34 8.6 47.4 52 -0.8 30.5 0 0
22:45 1029 30.39 858 25.34 8.5 47.3 52 -0.8 30.6 0 0
22:46 1029 30.39 858 25.34 8.4 47.1 53 -0.7 30.7 0 0
22:47 1029 30.39 858 25.34 8.3 46.9 53 -0.7 30.8 0 0
22:48 1029 30.39 858 25.34 8.2 46.7 54 -0.6 30.9 0 0
22:49 1029 30.39 858 25.34 8.3 46.9 53 -0.7 30.7 0 0
22:50 1029 30.39 858 25.34 8.4 47.1 53 -0.6 30.9 0 0
22:51 1029 30.39 858 25.34 8.4 47.1 53 -0.6 31 0 0
22:52 1029 30.39 858 25.34 8.3 47 54 -0.5 31.1 0 0
22:53 1029 30.39 858 25.34 8.3 46.9 54 -0.5 31 0 0
22:54 1029 30.39 858 25.34 8.3 46.9 54 -0.5 31.1 0 0
22:55 1029 30.39 858 25.34 8.2 46.8 54 -0.6 31 0 0
22:56 1029 30.39 858 25.34 8.4 47.1 52 -0.8 30.6 0 0
22:57 1029 30.39 858 25.34 8.6 47.5 52 -0.8 30.6 0 0
22:58 1029 30.39 858 25.34 8.7 47.7 51 -0.7 30.8 0 0
22:59 1029 30.39 858 25.34 8.8 47.9 51 -0.8 30.6 0 0
23:00 1029 30.39 858 25.34 8.9 48.1 51 -0.6 30.9 0 0
23:01 1029 30.39 858 25.34 9 48.3 50 -0.8 30.6 0 0
23:02 1029 30.39 858 25.34 9.2 48.5 50 -0.7 30.8 0 0
23:03 1029 30.39 858 25.34 9.2 48.5 50 -0.8 30.6 0 0
23:04 1029 30.39 858 25.34 9.2 48.6 50 -0.6 31 0 0
23:05 1029 30.39 858 25.34 9.2 48.5 51 -0.5 31.1 0 0
23:06 1029 30.39 858 25.34 9 48.3 51 -0.5 31 0 0
23:07 1029 30.39 858 25.34 8.9 48.1 51 -0.6 31 0 0
23:08 1029 30.39 858 25.34 8.8 47.9 52 -0.5 31.1 0 0
23:09 1029 30.39 858 25.34 8.7 47.7 52 -0.6 31 0 0
23:10 1029 30.39 858 25.34 8.7 47.6 52 -0.5 31 0 0
23:11 1029 30.39 858 25.34 8.6 47.4 52 -0.6 30.9 0 0
23:12 1029 30.39 858 25.34 8.6 47.6 52 -0.6 30.9 0 0
23:13 1029 30.39 858 25.34 8.7 47.6 52 -0.7 30.8 0 0
23:14 1029 30.39 858 25.34 8.8 47.8 52 -0.6 30.9 0 0
23:15 1029 30.39 858 25.34 8.9 48 51 -0.5 31 0 0
23:16 1029 30.39 858 25.34 8.9 48.1 51 -0.6 31 0 0
23:17 1029 30.39 858 25.34 9 48.1 51 -0.5 31.1 0 0
23:18 1029 30.39 858 25.34 9 48.2 52 -0.4 31.3 0 0
23:19 1029 30.39 858 25.34 9 48.2 51 -0.6 31 0 0
23:20 1029 30.39 858 25.34 9.1 48.3 51 -0.6 30.9 0 0
23:21 1029 30.39 858 25.34 9.1 48.4 50 -0.7 30.8 0 0
23:22 1029 30.39 858 25.34 9.2 48.6 50 -0.5 31 0 0
23:23 1029 30.39 858 25.34 9.2 48.5 50 -0.5 31 0 0
23:24 1029 30.39 858 25.34 9 48.3 51 -0.6 31 0 0
23:25 1029 30.39 858 25.34 8.9 48.1 51 -0.5 31 0 0
23:26 1029 30.39 858 25.34 8.8 47.9 51 -0.6 30.9 0 0
23:27 1029 30.39 858 25.34 8.9 48 51 -0.6 30.9 0 0
23:28 1029 30.39 858 25.34 8.9 48 51 -0.6 31 0 0
23:29 1029 30.39 858 25.34 8.8 47.9 52 -0.6 31 0 0
23:30 1029 30.39 858 25.34 8.8 47.8 52 -0.5 31.2 0 0
23:31 1029 30.39 858 25.34 8.7 47.7 52 -0.5 31.2 0 0
23:32 1029 30.39 858 25.34 8.7 47.6 53 -0.4 31.2 0 0
23:33 1029 30.39 858 25.34 8.7 47.6 52 -0.5 31.2 0 0
23:34 1029 30.39 858 25.34 8.7 47.7 53 -0.4 31.3 0 0
23:35 1029 30.39 858 25.34 8.7 47.6 53 -0.4 31.4 0 0
23:36 1029 30.39 858 25.34 8.7 47.6 53 -0.3 31.5 0 0
23:37 1029 30.39 858 25.34 8.6 47.5 53 -0.3 31.4 0 0
23:38 1029 30.39 858 25.34 8.7 47.6 53 -0.3 31.5 0 0
23:39 1029 30.39 858 25.34 8.7 47.6 53 -0.2 31.6 0 0
23:40 1029 30.39 858 25.34 8.7 47.7 53 -0.2 31.6 0 0
23:41 1029 30.39 858 25.34 8.8 47.8 53 -0.3 31.5 0 0
23:42 1029 30.39 858 25.34 8.7 47.7 53 -0.4 31.3 0 0
23:43 1029 30.39 858 25.34 8.8 47.8 53 -0.3 31.4 0 0
23:44 1029 30.39 858 25.34 8.7 47.7 53 -0.3 31.5 0 0
23:45 1029 30.39 858 25.34 8.5 47.4 54 -0.1 31.8 0 0
23:46 1029 30.39 858 25.34 8.1 46.6 56 -0.1 31.8 0 0
23:47 1029 30.39 858 25.34 7.8 46 57 -0.1 31.8 0 0
23:48 1029 30.39 858 25.34 7.5 45.5 58 -0.2 31.7 0 0
23:49 1029 30.39 858 25.34 7.3 45.1 59 -0.2 31.6 0 0
23:50 1029 30.39 858 25.34 7.3 45.1 59 -0.2 31.6 0 0
23:51 1029 30.39 858 25.34 7.1 44.9 59 -0.3 31.5 0 0
23:52 1029 30.39 859 25.37 7.1 44.7 59 -0.4 31.2 0 0
23:53 1029 30.39 858 25.34 7.1 44.7 58 -0.6 30.9 0 0
23:54 1029 30.39 858 25.34 7.1 44.7 58 -0.7 30.7 0 0
23:55 1029 30.39 858 25.34 7.1 44.8 57 -0.8 30.6 0 0
23:56 1029 30.39 858 25.34 7.2 45 56 -0.8 30.5 0 0
23:57 1029 30.39 858 25.34 7.4 45.3 56 -0.8 30.5 0 0
23:58 1029 30.39 858 25.34 7.5 45.4 56 -0.8 30.6 0 0
23:59 1029 30.39 858 25.34 7.5 45.4 56 -0.8 30.6 0 0
24:00 1029 30.39 858 25.34 7.6 45.6 55 -0.8 30.6 0 0